PWSweather.com
Personal Weather Stations
Station Observations
BELLAVISTACTC1
Bella Vista (cazadores De Tormentas), Bella Vista AmbatoAR

Bella Vista (cazadores De Tormentas)Bella Vista AmbatoAR

Lat: -28.172692, Lon: -65.885004

Elevation: 4836

Station Type:

http://www.cazatormentasdecatamarca.com/2011/10/datos-del-tiempo-actuales.html

Latest ConditionsUpdated 12:26:22 PM GMT-03:57 Tuesday, Dec 11, 2018
Currently Today's Max Today's Min Today's Average
Temperature 86.4°F30.2°C 86.4°F30.2°C 61.9°F16.6°C 70.7°F21.5°C
Dew Point 63.1°F17.3°C 68.5°F20.3°C 53.8°F12.1°C 58.4°F14.7°C
Winds 2.2 mph S3.5 kmh S 7.6 mph -12.2 kmh - - 2.1 mph 3.4 kmh
Wind Gusts 7.6 mph12.2 kmh 14.5 mph23.3 kmh - -
Humidity 46% 79% 42% 66%
Pressure 30.19 in1022.4 mb 30.19 in1022.4 mb 30.07 in1018.3 mb -
Hour Temp Dew Point Humidity Winds Wind Gusts Pressure Precip Precip Rate Daily Precip Total
12:26 PM 86.4°F30.2°C 63.1°F17.3°C 46% 2.2 mph S3.5 kmh S 7.6 mph12.2 kmh 30.19 in1022.4 mb 0.00 in0.0 mm 0.00 in0.0 mm 0.00 in0.0 mm
12:25 PM 86.4°F30.2°C 63.1°F17.3°C 46% 3.8 mph S6.1 kmh S 12.1 mph19.5 kmh 30.18 in1022.0 mb 0.00 in0.0 mm 0.00 in0.0 mm 0.00 in0.0 mm
12:24 PM 86.4°F30.2°C 63.1°F17.3°C 46% 7.6 mph SE12.2 kmh SE 12.1 mph19.5 kmh 30.18 in1022.0 mb 0.00 in0.0 mm 0.00 in0.0 mm 0.00 in0.0 mm
12:22 PM 86.4°F30.2°C 62.4°F16.9°C 45% 7.6 mph E12.2 kmh E 12.1 mph19.5 kmh 30.18 in1022.0 mb 0.00 in0.0 mm 0.00 in0.0 mm 0.00 in0.0 mm
12:21 PM 86.4°F30.2°C 61.9°F16.6°C 44% 3.1 mph E5.0 kmh E 7.6 mph12.2 kmh 30.18 in1022.0 mb 0.00 in0.0 mm 0.00 in0.0 mm 0.00 in0.0 mm
12:20 PM 86.4°F30.2°C 62.4°F16.9°C 45% 3.1 mph S5.0 kmh S 7.6 mph12.2 kmh 30.19 in1022.4 mb 0.00 in0.0 mm 0.00 in0.0 mm 0.00 in0.0 mm
12:18 PM 86.4°F30.2°C 64.9°F18.3°C 49% 3.8 mph SE6.1 kmh SE 6.9 mph11.1 kmh 30.18 in1022.0 mb 0.00 in0.0 mm 0.00 in0.0 mm 0.00 in0.0 mm
12:16 PM 86.4°F30.2°C 61.2°F16.2°C 43% 3.8 mph S6.1 kmh S 7.6 mph12.2 kmh 30.18 in1022.0 mb 0.00 in0.0 mm 0.00 in0.0 mm 0.00 in0.0 mm
12:15 PM 86.4°F30.2°C 62.4°F16.9°C 45% 4.5 mph S7.2 kmh S 8.3 mph13.4 kmh 30.18 in1022.0 mb 0.00 in0.0 mm 0.00 in0.0 mm 0.00 in0.0 mm
12:14 PM 86.4°F30.2°C 60.6°F15.9°C 42% 4.5 mph SE7.2 kmh SE 11.4 mph18.3 kmh 30.19 in1022.4 mb 0.00 in0.0 mm 0.00 in0.0 mm 0.00 in0.0 mm
12:13 PM 86.4°F30.2°C 60.6°F15.9°C 42% 6.9 mph W11.1 kmh W 13.6 mph21.9 kmh 30.19 in1022.4 mb 0.00 in0.0 mm 0.00 in0.0 mm 0.00 in0.0 mm
12:12 PM 86.4°F30.2°C 61.2°F16.2°C 43% 6.0 mph S9.7 kmh S 13.6 mph21.9 kmh 30.18 in1022.0 mb 0.00 in0.0 mm 0.00 in0.0 mm 0.00 in0.0 mm
12:11 PM 86.4°F30.2°C 63.7°F17.6°C 47% 5.4 mph SW8.7 kmh SW 10.7 mph17.2 kmh 30.18 in1022.0 mb 0.00 in0.0 mm 0.00 in0.0 mm 0.00 in0.0 mm
12:09 PM 86.4°F30.2°C 63.1°F17.3°C 46% 4.5 mph SE7.2 kmh SE 9.8 mph15.8 kmh 30.19 in1022.4 mb 0.00 in0.0 mm 0.00 in0.0 mm 0.00 in0.0 mm
12:08 PM 86.4°F30.2°C 65.5°F18.6°C 50% 4.5 mph SE7.2 kmh SE 9.2 mph14.8 kmh 30.18 in1022.0 mb 0.00 in0.0 mm 0.00 in0.0 mm 0.00 in0.0 mm
12:06 PM 86.2°F30.1°C 63.5°F17.5°C 47% 3.1 mph SW5.0 kmh SW 11.4 mph18.3 kmh 30.19 in1022.4 mb 0.00 in0.0 mm 0.00 in0.0 mm 0.00 in0.0 mm
12:04 PM 86.2°F30.1°C 63.0°F17.2°C 46% 3.1 mph S5.0 kmh S 8.3 mph13.4 kmh 30.18 in1022.0 mb 0.00 in0.0 mm 0.00 in0.0 mm 0.00 in0.0 mm
11:59 AM 85.8°F29.9°C 63.9°F17.7°C 48% 3.8 mph S6.1 kmh S 7.6 mph12.2 kmh 30.18 in1022.0 mb 0.00 in0.0 mm 0.00 in0.0 mm 0.00 in0.0 mm
11:58 AM 85.8°F29.9°C 63.3°F17.4°C 47% 4.5 mph W7.2 kmh W 9.8 mph15.8 kmh 30.19 in1022.4 mb 0.00 in0.0 mm 0.00 in0.0 mm 0.00 in0.0 mm
11:57 AM 85.8°F29.9°C 62.1°F16.7°C 45% 3.8 mph W6.1 kmh W 9.8 mph15.8 kmh 30.19 in1022.4 mb 0.00 in0.0 mm 0.00 in0.0 mm 0.00 in0.0 mm
11:55 AM 85.6°F29.8°C 62.4°F16.9°C 46% 3.8 mph S6.1 kmh S 7.6 mph12.2 kmh 30.18 in1022.0 mb 0.00 in0.0 mm 0.00 in0.0 mm 0.00 in0.0 mm
11:53 AM 85.6°F29.8°C 63.7°F17.6°C 48% 3.1 mph SE5.0 kmh SE 6.0 mph9.7 kmh 30.18 in1022.0 mb 0.00 in0.0 mm 0.00 in0.0 mm 0.00 in0.0 mm
11:49 AM 85.5°F29.7°C 62.2°F16.8°C 46% 3.8 mph SW6.1 kmh SW 8.3 mph13.4 kmh 30.18 in1022.0 mb 0.00 in0.0 mm 0.00 in0.0 mm 0.00 in0.0 mm
11:47 AM 85.3°F29.6°C 62.2°F16.8°C 46% 0.7 mph W1.1 kmh W 9.2 mph14.8 kmh 30.18 in1022.0 mb 0.00 in0.0 mm 0.00 in0.0 mm 0.00 in0.0 mm
11:46 AM 85.3°F29.6°C 62.2°F16.8°C 46% 5.4 mph S8.7 kmh S 8.3 mph13.4 kmh 30.19 in1022.4 mb 0.00 in0.0 mm 0.00 in0.0 mm 0.00 in0.0 mm
11:45 AM 85.1°F29.5°C 63.9°F17.7°C 49% 3.8 mph S6.1 kmh S 9.8 mph15.8 kmh 30.19 in1022.4 mb 0.00 in0.0 mm 0.00 in0.0 mm 0.00 in0.0 mm
11:42 AM 85.1°F29.5°C 65.5°F18.6°C 52% 2.2 mph S3.5 kmh S 3.8 mph6.1 kmh 30.19 in1022.4 mb 0.00 in0.0 mm 0.00 in0.0 mm 0.00 in0.0 mm
11:41 AM 85.1°F29.5°C 65.5°F18.6°C 52% 3.8 mph E6.1 kmh E 7.6 mph12.2 kmh 30.19 in1022.4 mb 0.00 in0.0 mm 0.00 in0.0 mm 0.00 in0.0 mm
11:40 AM 84.9°F29.4°C 68.5°F20.3°C 58% 2.2 mph E3.5 kmh E 4.5 mph7.2 kmh 30.19 in1022.4 mb 0.00 in0.0 mm 0.00 in0.0 mm 0.00 in0.0 mm
11:39 AM 84.9°F29.4°C 63.0°F17.2°C 48% 2.2 mph W3.5 kmh W 6.0 mph9.7 kmh 30.19 in1022.4 mb 0.00 in0.0 mm 0.00 in0.0 mm 0.00 in0.0 mm
11:38 AM 84.7°F29.3°C 64.0°F17.8°C 50% 3.1 mph S5.0 kmh S 7.6 mph12.2 kmh 30.19 in1022.4 mb 0.00 in0.0 mm 0.00 in0.0 mm 0.00 in0.0 mm
11:35 AM 84.7°F29.3°C 64.0°F17.8°C 50% 3.8 mph SW6.1 kmh SW 8.3 mph13.4 kmh 30.18 in1022.0 mb 0.00 in0.0 mm 0.00 in0.0 mm 0.00 in0.0 mm
11:34 AM 84.7°F29.3°C 63.5°F17.5°C 49% 4.5 mph SE7.2 kmh SE 8.3 mph13.4 kmh 30.19 in1022.4 mb 0.00 in0.0 mm 0.00 in0.0 mm 0.00 in0.0 mm
11:33 AM 84.7°F29.3°C 64.0°F17.8°C 50% 3.8 mph SE6.1 kmh SE 7.6 mph12.2 kmh 30.19 in1022.4 mb 0.00 in0.0 mm 0.00 in0.0 mm 0.00 in0.0 mm
11:32 AM 84.6°F29.2°C 66.6°F19.2°C 55% 3.1 mph SW5.0 kmh SW 6.0 mph9.7 kmh 30.18 in1022.0 mb 0.00 in0.0 mm 0.00 in0.0 mm 0.00 in0.0 mm
11:31 AM 84.6°F29.2°C 64.4°F18.0°C 51% 0.7 mph SE1.1 kmh SE 2.2 mph3.5 kmh 30.18 in1022.0 mb 0.00 in0.0 mm 0.00 in0.0 mm 0.00 in0.0 mm
11:29 AM 84.6°F29.2°C 64.9°F18.3°C 52% 0.7 mph S1.1 kmh S 4.5 mph7.2 kmh 30.18 in1022.0 mb 0.00 in0.0 mm 0.00 in0.0 mm 0.00 in0.0 mm
11:27 AM 84.4°F29.1°C 62.6°F17.0°C 48% 2.2 mph S3.5 kmh S 6.9 mph11.1 kmh 30.18 in1022.0 mb 0.00 in0.0 mm 0.00 in0.0 mm 0.00 in0.0 mm
11:26 AM 84.4°F29.1°C 66.4°F19.1°C 55% 4.5 mph E7.2 kmh E 6.9 mph11.1 kmh 30.19 in1022.4 mb 0.00 in0.0 mm 0.00 in0.0 mm 0.00 in0.0 mm
11:25 AM 84.4°F29.1°C 64.2°F17.9°C 51% 2.2 mph S3.5 kmh S 7.6 mph12.2 kmh 30.19 in1022.4 mb 0.00 in0.0 mm 0.00 in0.0 mm 0.00 in0.0 mm
11:24 AM 84.4°F29.1°C 64.2°F17.9°C 51% 3.8 mph S6.1 kmh S 6.9 mph11.1 kmh 30.19 in1022.4 mb 0.00 in0.0 mm 0.00 in0.0 mm 0.00 in0.0 mm
11:22 AM 84.2°F29.0°C 64.0°F17.8°C 51% 3.8 mph S6.1 kmh S 8.3 mph13.4 kmh 30.19 in1022.4 mb 0.00 in0.0 mm 0.00 in0.0 mm 0.00 in0.0 mm
11:20 AM 84.2°F29.0°C 65.3°F18.5°C 53% Calm Calm 3.8 mph6.1 kmh 30.19 in1022.4 mb 0.00 in0.0 mm 0.00 in0.0 mm 0.00 in0.0 mm
11:19 AM 84.0°F28.9°C 66.6°F19.2°C 56% 1.6 mph S2.6 kmh S 8.3 mph13.4 kmh 30.19 in1022.4 mb 0.00 in0.0 mm 0.00 in0.0 mm 0.00 in0.0 mm
11:18 AM 84.0°F28.9°C 67.1°F19.5°C 57% 3.8 mph W6.1 kmh W 9.2 mph14.8 kmh 30.18 in1022.0 mb 0.00 in0.0 mm 0.00 in0.0 mm 0.00 in0.0 mm
11:17 AM 84.0°F28.9°C 62.2°F16.8°C 48% 6.0 mph SE9.7 kmh SE 9.2 mph14.8 kmh 30.19 in1022.4 mb 0.00 in0.0 mm 0.00 in0.0 mm 0.00 in0.0 mm
11:15 AM 83.8°F28.8°C 66.0°F18.9°C 55% 3.1 mph SE5.0 kmh SE 7.6 mph12.2 kmh 30.19 in1022.4 mb 0.00 in0.0 mm 0.00 in0.0 mm 0.00 in0.0 mm
11:14 AM 83.8°F28.8°C 63.9°F17.7°C 51% 3.1 mph S5.0 kmh S 7.6 mph12.2 kmh 30.19 in1022.4 mb 0.00 in0.0 mm 0.00 in0.0 mm 0.00 in0.0 mm
11:13 AM 83.8°F28.8°C 64.9°F18.3°C 53% 3.1 mph E5.0 kmh E 7.6 mph12.2 kmh 30.19 in1022.4 mb 0.00 in0.0 mm 0.00 in0.0 mm 0.00 in0.0 mm
11:12 AM 83.8°F28.8°C 62.6°F17.0°C 49% 3.1 mph SW5.0 kmh SW 6.0 mph9.7 kmh 30.19 in1022.4 mb 0.00 in0.0 mm 0.00 in0.0 mm 0.00 in0.0 mm
11:11 AM 83.8°F28.8°C 63.9°F17.7°C 51% 0.7 mph S1.1 kmh S 6.0 mph9.7 kmh 30.18 in1022.0 mb 0.00 in0.0 mm 0.00 in0.0 mm 0.00 in0.0 mm
11:10 AM 83.7°F28.7°C 64.2°F17.9°C 52% 2.2 mph 3.5 kmh 6.0 mph9.7 kmh 30.18 in1022.0 mb 0.00 in0.0 mm 0.00 in0.0 mm 0.00 in0.0 mm
11:08 AM 83.7°F28.7°C 65.3°F18.5°C 54% 1.6 mph S2.6 kmh S 4.5 mph7.2 kmh 30.18 in1022.0 mb 0.00 in0.0 mm 0.00 in0.0 mm 0.00 in0.0 mm
11:05 AM 83.5°F28.6°C 65.1°F18.4°C 54% 3.8 mph SE6.1 kmh SE 6.9 mph11.1 kmh 30.19 in1022.4 mb 0.00 in0.0 mm 0.00 in0.0 mm 0.00 in0.0 mm
11:04 AM 83.5°F28.6°C 63.5°F17.5°C 51% 0.7 mph S1.1 kmh S 2.2 mph3.5 kmh 30.18 in1022.0 mb 0.00 in0.0 mm 0.00 in0.0 mm 0.00 in0.0 mm
11:02 AM 83.3°F28.5°C 65.5°F18.6°C 55% 0.7 mph SE1.1 kmh SE 4.5 mph7.2 kmh 30.19 in1022.4 mb 0.00 in0.0 mm 0.00 in0.0 mm 0.00 in0.0 mm
11:01 AM 83.3°F28.5°C 63.9°F17.7°C 52% 2.2 mph S3.5 kmh S 3.8 mph6.1 kmh 30.18 in1022.0 mb 0.00 in0.0 mm 0.00 in0.0 mm 0.00 in0.0 mm
11:00 AM 83.3°F28.5°C 61.5°F16.4°C 48% 2.2 mph S3.5 kmh S 3.8 mph6.1 kmh 30.18 in1022.0 mb 0.00 in0.0 mm 0.00 in0.0 mm 0.00 in0.0 mm
10:59 AM 83.1°F28.4°C 63.7°F17.6°C 52% 2.2 mph W3.5 kmh W 9.2 mph14.8 kmh 30.18 in1022.0 mb 0.00 in0.0 mm 0.00 in0.0 mm 0.00 in0.0 mm
10:58 AM 83.1°F28.4°C 62.1°F16.7°C 49% 4.5 mph E7.2 kmh E 9.2 mph14.8 kmh 30.19 in1022.4 mb 0.00 in0.0 mm 0.00 in0.0 mm 0.00 in0.0 mm
10:57 AM 82.9°F28.3°C 63.0°F17.2°C 51% 2.2 mph S3.5 kmh S 3.8 mph6.1 kmh 30.18 in1022.0 mb 0.00 in0.0 mm 0.00 in0.0 mm 0.00 in0.0 mm
10:55 AM 82.9°F28.3°C 63.5°F17.5°C 52% 1.6 mph SW2.6 kmh SW 4.5 mph7.2 kmh 30.18 in1022.0 mb 0.00 in0.0 mm 0.00 in0.0 mm 0.00 in0.0 mm
10:54 AM 82.9°F28.3°C 62.4°F16.9°C 50% 2.2 mph E3.5 kmh E 4.5 mph7.2 kmh 30.18 in1022.0 mb 0.00 in0.0 mm 0.00 in0.0 mm 0.00 in0.0 mm
10:53 AM 82.8°F28.2°C 64.4°F18.0°C 54% 2.2 mph S3.5 kmh S 4.5 mph7.2 kmh 30.18 in1022.0 mb 0.00 in0.0 mm 0.00 in0.0 mm 0.00 in0.0 mm
10:52 AM 82.8°F28.2°C 63.3°F17.4°C 52% 0.7 mph W1.1 kmh W 3.8 mph6.1 kmh 30.18 in1022.0 mb 0.00 in0.0 mm 0.00 in0.0 mm 0.00 in0.0 mm
10:50 AM 82.6°F28.1°C 63.1°F17.3°C 52% 1.6 mph W2.6 kmh W 4.5 mph7.2 kmh 30.18 in1022.0 mb 0.00 in0.0 mm 0.00 in0.0 mm 0.00 in0.0 mm
10:48 AM 82.6°F28.1°C 64.8°F18.2°C 55% 2.2 mph S3.5 kmh S 4.5 mph7.2 kmh 30.18 in1022.0 mb 0.00 in0.0 mm 0.00 in0.0 mm 0.00 in0.0 mm
10:47 AM 82.6°F28.1°C 64.8°F18.2°C 55% 1.6 mph S2.6 kmh S 3.8 mph6.1 kmh 30.18 in1022.0 mb 0.00 in0.0 mm 0.00 in0.0 mm 0.00 in0.0 mm
10:46 AM 82.4°F28.0°C 64.6°F18.1°C 55% 1.6 mph S2.6 kmh S 3.8 mph6.1 kmh 30.18 in1022.0 mb 0.00 in0.0 mm 0.00 in0.0 mm 0.00 in0.0 mm
10:45 AM 82.4°F28.0°C 63.5°F17.5°C 53% 1.6 mph SW2.6 kmh SW 3.8 mph6.1 kmh 30.18 in1022.0 mb 0.00 in0.0 mm 0.00 in0.0 mm 0.00 in0.0 mm
10:44 AM 82.4°F28.0°C 61.9°F16.6°C 50% 1.6 mph W2.6 kmh W 3.1 mph5.0 kmh 30.18 in1022.0 mb 0.00 in0.0 mm 0.00 in0.0 mm 0.00 in0.0 mm
10:41 AM 82.2°F27.9°C 63.3°F17.4°C 53% 3.1 mph S5.0 kmh S 6.0 mph9.7 kmh 30.18 in1022.0 mb 0.00 in0.0 mm 0.00 in0.0 mm 0.00 in0.0 mm
10:40 AM 82.0°F27.8°C 62.1°F16.7°C 51% 3.8 mph S6.1 kmh S 6.9 mph11.1 kmh 30.18 in1022.0 mb 0.00 in0.0 mm 0.00 in0.0 mm 0.00 in0.0 mm
10:39 AM 82.0°F27.8°C 62.6°F17.0°C 52% 3.1 mph S5.0 kmh S 6.9 mph11.1 kmh 30.18 in1022.0 mb 0.00 in0.0 mm 0.00 in0.0 mm 0.00 in0.0 mm
10:35 AM 81.7°F27.6°C 63.0°F17.2°C 53% 0.7 mph S1.1 kmh S 2.2 mph3.5 kmh 30.18 in1022.0 mb 0.00 in0.0 mm 0.00 in0.0 mm 0.00 in0.0 mm
10:34 AM 81.7°F27.6°C 64.4°F18.0°C 56% 0.7 mph S1.1 kmh S 2.2 mph3.5 kmh 30.18 in1022.0 mb 0.00 in0.0 mm 0.00 in0.0 mm 0.00 in0.0 mm
10:32 AM 81.3°F27.4°C 62.6°F17.0°C 53% 3.1 mph SE5.0 kmh SE 6.0 mph9.7 kmh 30.18 in1022.0 mb 0.00 in0.0 mm 0.00 in0.0 mm 0.00 in0.0 mm
10:31 AM 81.3°F27.4°C 63.1°F17.3°C 54% 2.2 mph SE3.5 kmh SE 6.0 mph9.7 kmh 30.17 in1021.7 mb 0.00 in0.0 mm 0.00 in0.0 mm 0.00 in0.0 mm
10:30 AM 81.1°F27.3°C 62.4°F16.9°C 53% 3.1 mph E5.0 kmh E 6.0 mph9.7 kmh 30.17 in1021.7 mb 0.00 in0.0 mm 0.00 in0.0 mm 0.00 in0.0 mm
10:26 AM 80.8°F27.1°C 61.5°F16.4°C 52% 1.6 mph S2.6 kmh S 3.1 mph5.0 kmh 30.18 in1022.0 mb 0.00 in0.0 mm 0.00 in0.0 mm 0.00 in0.0 mm
10:23 AM 80.4°F26.9°C 63.3°F17.4°C 56% 2.2 mph S3.5 kmh S 4.5 mph7.2 kmh 30.18 in1022.0 mb 0.00 in0.0 mm 0.00 in0.0 mm 0.00 in0.0 mm
10:21 AM 80.2°F26.8°C 62.6°F17.0°C 55% 0.7 mph SW1.1 kmh SW 3.1 mph5.0 kmh 30.18 in1022.0 mb 0.00 in0.0 mm 0.00 in0.0 mm 0.00 in0.0 mm
10:20 AM 80.2°F26.8°C 63.7°F17.6°C 57% 1.6 mph S2.6 kmh S 3.1 mph5.0 kmh 30.18 in1022.0 mb 0.00 in0.0 mm 0.00 in0.0 mm 0.00 in0.0 mm
10:19 AM 80.2°F26.8°C 62.6°F17.0°C 55% Calm Calm 6.0 mph9.7 kmh 30.18 in1022.0 mb 0.00 in0.0 mm 0.00 in0.0 mm 0.00 in0.0 mm
10:18 AM 80.1°F26.7°C 62.4°F16.9°C 55% 3.1 mph S5.0 kmh S 6.0 mph9.7 kmh 30.18 in1022.0 mb 0.00 in0.0 mm 0.00 in0.0 mm 0.00 in0.0 mm
10:17 AM 80.1°F26.7°C 65.5°F18.6°C 61% 1.6 mph E2.6 kmh E 3.1 mph5.0 kmh 30.18 in1022.0 mb 0.00 in0.0 mm 0.00 in0.0 mm 0.00 in0.0 mm
10:14 AM 79.9°F26.6°C 62.2°F16.8°C 55% 2.2 mph S3.5 kmh S 3.8 mph6.1 kmh 30.18 in1022.0 mb 0.00 in0.0 mm 0.00 in0.0 mm 0.00 in0.0 mm
10:12 AM 79.7°F26.5°C 61.5°F16.4°C 54% 0.7 mph W1.1 kmh W 3.1 mph5.0 kmh 30.18 in1022.0 mb 0.00 in0.0 mm 0.00 in0.0 mm 0.00 in0.0 mm
08:06 AM 65.1°F18.4°C 56.7°F13.7°C 74% 0.7 mph E1.1 kmh E 2.2 mph3.5 kmh 30.14 in1020.7 mb 0.00 in0.0 mm 0.00 in0.0 mm 0.00 in0.0 mm
08:05 AM 64.9°F18.3°C 56.5°F13.6°C 74% 1.6 mph 2.6 kmh 3.1 mph5.0 kmh 30.15 in1021.0 mb 0.00 in0.0 mm 0.00 in0.0 mm 0.00 in0.0 mm
08:02 AM 64.4°F18.0°C 56.7°F13.7°C 76% 1.6 mph 2.6 kmh 2.2 mph3.5 kmh 30.14 in1020.7 mb 0.00 in0.0 mm 0.00 in0.0 mm 0.00 in0.0 mm
08:01 AM 64.4°F18.0°C 56.7°F13.7°C 76% 0.7 mph 1.1 kmh 2.2 mph3.5 kmh 30.14 in1020.7 mb 0.00 in0.0 mm 0.00 in0.0 mm 0.00 in0.0 mm
07:59 AM 64.2°F17.9°C 56.1°F13.4°C 75% 1.6 mph 2.6 kmh 3.8 mph6.1 kmh 30.14 in1020.7 mb 0.00 in0.0 mm 0.00 in0.0 mm 0.00 in0.0 mm
07:58 AM 64.0°F17.8°C 55.9°F13.3°C 75% 2.2 mph 3.5 kmh 3.8 mph6.1 kmh 30.14 in1020.7 mb 0.00 in0.0 mm 0.00 in0.0 mm 0.00 in0.0 mm
07:56 AM 63.9°F17.7°C 55.8°F13.2°C 75% 0.7 mph 1.1 kmh 2.2 mph3.5 kmh 30.14 in1020.7 mb 0.00 in0.0 mm 0.00 in0.0 mm 0.00 in0.0 mm
07:55 AM 63.7°F17.6°C 57.0°F13.9°C 79% 0.7 mph 1.1 kmh 2.2 mph3.5 kmh 30.14 in1020.7 mb 0.00 in0.0 mm 0.00 in0.0 mm 0.00 in0.0 mm
07:53 AM 63.7°F17.6°C 56.7°F13.7°C 78% 1.6 mph 2.6 kmh 3.1 mph5.0 kmh 30.15 in1021.0 mb 0.00 in0.0 mm 0.00 in0.0 mm 0.00 in0.0 mm
07:52 AM 63.7°F17.6°C 56.3°F13.5°C 77% 0.7 mph 1.1 kmh 2.2 mph3.5 kmh 30.14 in1020.7 mb 0.00 in0.0 mm 0.00 in0.0 mm 0.00 in0.0 mm
07:51 AM 63.5°F17.5°C 56.1°F13.4°C 77% Calm Calm 0.7 mph1.1 kmh 30.14 in1020.7 mb 0.00 in0.0 mm 0.00 in0.0 mm 0.00 in0.0 mm
07:50 AM 63.5°F17.5°C 55.8°F13.2°C 76% 1.6 mph 2.6 kmh 3.8 mph6.1 kmh 30.14 in1020.7 mb 0.00 in0.0 mm 0.00 in0.0 mm 0.00 in0.0 mm
07:49 AM 63.3°F17.4°C 55.2°F12.9°C 75% 2.2 mph 3.5 kmh 5.4 mph8.7 kmh 30.14 in1020.7 mb 0.00 in0.0 mm 0.00 in0.0 mm 0.00 in0.0 mm
07:48 AM 63.3°F17.4°C 55.2°F12.9°C 75% 3.1 mph NW5.0 kmh NW 5.4 mph8.7 kmh 30.14 in1020.7 mb 0.00 in0.0 mm 0.00 in0.0 mm 0.00 in0.0 mm
07:46 AM 63.1°F17.3°C 55.0°F12.8°C 75% 2.2 mph 3.5 kmh 6.9 mph11.1 kmh 30.14 in1020.7 mb 0.00 in0.0 mm 0.00 in0.0 mm 0.00 in0.0 mm
07:44 AM 63.0°F17.2°C 54.9°F12.7°C 75% 3.8 mph 6.1 kmh 6.9 mph11.1 kmh 30.14 in1020.7 mb 0.00 in0.0 mm 0.00 in0.0 mm 0.00 in0.0 mm
07:43 AM 63.0°F17.2°C 55.2°F12.9°C 76% 3.1 mph 5.0 kmh 3.8 mph6.1 kmh 30.14 in1020.7 mb 0.00 in0.0 mm 0.00 in0.0 mm 0.00 in0.0 mm
07:42 AM 62.8°F17.1°C 54.7°F12.6°C 75% 1.6 mph 2.6 kmh 3.8 mph6.1 kmh 30.14 in1020.7 mb 0.00 in0.0 mm 0.00 in0.0 mm 0.00 in0.0 mm
07:41 AM 62.8°F17.1°C 54.7°F12.6°C 75% 2.2 mph 3.5 kmh 3.8 mph6.1 kmh 30.14 in1020.7 mb 0.00 in0.0 mm 0.00 in0.0 mm 0.00 in0.0 mm
07:39 AM 62.6°F17.0°C 54.5°F12.5°C 75% 3.1 mph 5.0 kmh 4.5 mph7.2 kmh 30.14 in1020.7 mb 0.00 in0.0 mm 0.00 in0.0 mm 0.00 in0.0 mm
07:37 AM 62.6°F17.0°C 54.5°F12.5°C 75% 2.2 mph 3.5 kmh 7.6 mph12.2 kmh 30.14 in1020.7 mb 0.00 in0.0 mm 0.00 in0.0 mm 0.00 in0.0 mm
07:35 AM 62.4°F16.9°C 54.3°F12.4°C 75% 3.1 mph 5.0 kmh 6.0 mph9.7 kmh 30.14 in1020.7 mb 0.00 in0.0 mm 0.00 in0.0 mm 0.00 in0.0 mm
07:33 AM 62.4°F16.9°C 54.3°F12.4°C 75% 4.5 mph 7.2 kmh 8.3 mph13.4 kmh 30.14 in1020.7 mb 0.00 in0.0 mm 0.00 in0.0 mm 0.00 in0.0 mm
07:32 AM 62.4°F16.9°C 54.3°F12.4°C 75% 4.5 mph 7.2 kmh 7.6 mph12.2 kmh 30.14 in1020.7 mb 0.00 in0.0 mm 0.00 in0.0 mm 0.00 in0.0 mm
07:30 AM 62.4°F16.9°C 54.3°F12.4°C 75% 3.1 mph 5.0 kmh 5.4 mph8.7 kmh 30.13 in1020.3 mb 0.00 in0.0 mm 0.00 in0.0 mm 0.00 in0.0 mm
07:29 AM 62.4°F16.9°C 54.3°F12.4°C 75% 2.2 mph 3.5 kmh 4.5 mph7.2 kmh 30.14 in1020.7 mb 0.00 in0.0 mm 0.00 in0.0 mm 0.00 in0.0 mm
07:28 AM 62.4°F16.9°C 54.3°F12.4°C 75% 3.1 mph 5.0 kmh 5.4 mph8.7 kmh 30.14 in1020.7 mb 0.00 in0.0 mm 0.00 in0.0 mm 0.00 in0.0 mm
07:26 AM 62.2°F16.8°C 54.1°F12.3°C 75% 3.1 mph 5.0 kmh 5.4 mph8.7 kmh 30.13 in1020.3 mb 0.00 in0.0 mm 0.00 in0.0 mm 0.00 in0.0 mm
07:25 AM 62.2°F16.8°C 54.1°F12.3°C 75% 3.1 mph E5.0 kmh E 6.0 mph9.7 kmh 30.13 in1020.3 mb 0.00 in0.0 mm 0.00 in0.0 mm 0.00 in0.0 mm
07:23 AM 62.2°F16.8°C 54.5°F12.5°C 76% 3.8 mph 6.1 kmh 5.4 mph8.7 kmh 30.13 in1020.3 mb 0.00 in0.0 mm 0.00 in0.0 mm 0.00 in0.0 mm
07:22 AM 62.1°F16.7°C 54.3°F12.4°C 76% 3.1 mph 5.0 kmh 5.4 mph8.7 kmh 30.13 in1020.3 mb 0.00 in0.0 mm 0.00 in0.0 mm 0.00 in0.0 mm
07:19 AM 62.1°F16.7°C 54.0°F12.2°C 75% 2.2 mph NE3.5 kmh NE 9.8 mph15.8 kmh 30.13 in1020.3 mb 0.00 in0.0 mm 0.00 in0.0 mm 0.00 in0.0 mm
07:18 AM 62.1°F16.7°C 54.0°F12.2°C 75% 5.4 mph 8.7 kmh 10.7 mph17.2 kmh 30.13 in1020.3 mb 0.00 in0.0 mm 0.00 in0.0 mm 0.00 in0.0 mm
07:17 AM 62.1°F16.7°C 54.0°F12.2°C 75% 3.8 mph 6.1 kmh 8.3 mph13.4 kmh 30.13 in1020.3 mb 0.00 in0.0 mm 0.00 in0.0 mm 0.00 in0.0 mm
07:16 AM 61.9°F16.6°C 53.8°F12.1°C 75% 4.5 mph 7.2 kmh 8.3 mph13.4 kmh 30.13 in1020.3 mb 0.00 in0.0 mm 0.00 in0.0 mm 0.00 in0.0 mm
07:15 AM 61.9°F16.6°C 53.8°F12.1°C 75% 3.8 mph 6.1 kmh 5.4 mph8.7 kmh 30.13 in1020.3 mb 0.00 in0.0 mm 0.00 in0.0 mm 0.00 in0.0 mm
07:14 AM 61.9°F16.6°C 53.8°F12.1°C 75% 2.2 mph 3.5 kmh 5.4 mph8.7 kmh 30.13 in1020.3 mb 0.00 in0.0 mm 0.00 in0.0 mm 0.00 in0.0 mm
07:12 AM 61.9°F16.6°C 54.3°F12.4°C 76% 2.2 mph 3.5 kmh 4.5 mph7.2 kmh 30.13 in1020.3 mb 0.00 in0.0 mm 0.00 in0.0 mm 0.00 in0.0 mm
07:11 AM 62.1°F16.7°C 54.7°F12.6°C 77% 3.1 mph 5.0 kmh 4.5 mph7.2 kmh 30.13 in1020.3 mb 0.00 in0.0 mm 0.00 in0.0 mm 0.00 in0.0 mm
07:10 AM 62.1°F16.7°C 54.7°F12.6°C 77% 3.8 mph 6.1 kmh 5.4 mph8.7 kmh 30.13 in1020.3 mb 0.00 in0.0 mm 0.00 in0.0 mm 0.00 in0.0 mm
07:08 AM 62.1°F16.7°C 54.3°F12.4°C 76% 3.8 mph 6.1 kmh 6.9 mph11.1 kmh 30.12 in1020.0 mb 0.00 in0.0 mm 0.00 in0.0 mm 0.00 in0.0 mm
07:06 AM 62.2°F16.8°C 54.5°F12.5°C 76% 2.2 mph 3.5 kmh 6.0 mph9.7 kmh 30.13 in1020.3 mb 0.00 in0.0 mm 0.00 in0.0 mm 0.00 in0.0 mm
07:02 AM 62.4°F16.9°C 54.7°F12.6°C 76% 1.6 mph 2.6 kmh 9.2 mph14.8 kmh 30.13 in1020.3 mb 0.00 in0.0 mm 0.00 in0.0 mm 0.00 in0.0 mm
06:59 AM 62.4°F16.9°C 54.7°F12.6°C 76% 3.1 mph 5.0 kmh 6.9 mph11.1 kmh 30.13 in1020.3 mb 0.00 in0.0 mm 0.00 in0.0 mm 0.00 in0.0 mm
06:58 AM 62.6°F17.0°C 54.9°F12.7°C 76% 3.8 mph 6.1 kmh 7.6 mph12.2 kmh 30.13 in1020.3 mb 0.00 in0.0 mm 0.00 in0.0 mm 0.00 in0.0 mm
06:57 AM 62.6°F17.0°C 54.9°F12.7°C 76% 5.4 mph 8.7 kmh 8.3 mph13.4 kmh 30.13 in1020.3 mb 0.00 in0.0 mm 0.00 in0.0 mm 0.00 in0.0 mm
06:56 AM 62.6°F17.0°C 54.9°F12.7°C 76% 6.0 mph 9.7 kmh 8.3 mph13.4 kmh 30.13 in1020.3 mb 0.00 in0.0 mm 0.00 in0.0 mm 0.00 in0.0 mm
06:55 AM 62.6°F17.0°C 54.9°F12.7°C 76% 3.8 mph 6.1 kmh 7.6 mph12.2 kmh 30.13 in1020.3 mb 0.00 in0.0 mm 0.00 in0.0 mm 0.00 in0.0 mm
06:54 AM 62.6°F17.0°C 54.9°F12.7°C 76% 4.5 mph 7.2 kmh 8.3 mph13.4 kmh 30.13 in1020.3 mb 0.00 in0.0 mm 0.00 in0.0 mm 0.00 in0.0 mm
06:52 AM 62.6°F17.0°C 54.9°F12.7°C 76% 4.5 mph 7.2 kmh 7.6 mph12.2 kmh 30.12 in1020.0 mb 0.00 in0.0 mm 0.00 in0.0 mm 0.00 in0.0 mm
06:51 AM 62.6°F17.0°C 55.2°F12.9°C 77% 3.8 mph 6.1 kmh 5.4 mph8.7 kmh 30.12 in1020.0 mb 0.00 in0.0 mm 0.00 in0.0 mm 0.00 in0.0 mm
06:50 AM 62.6°F17.0°C 54.9°F12.7°C 76% 2.2 mph 3.5 kmh 4.5 mph7.2 kmh 30.12 in1020.0 mb 0.00 in0.0 mm 0.00 in0.0 mm 0.00 in0.0 mm
06:49 AM 62.6°F17.0°C 54.9°F12.7°C 76% 3.1 mph 5.0 kmh 4.5 mph7.2 kmh 30.12 in1020.0 mb 0.00 in0.0 mm 0.00 in0.0 mm 0.00 in0.0 mm
06:48 AM 62.6°F17.0°C 54.5°F12.5°C 75% 2.2 mph NE3.5 kmh NE 3.8 mph6.1 kmh 30.12 in1020.0 mb 0.00 in0.0 mm 0.00 in0.0 mm 0.00 in0.0 mm
06:46 AM 62.8°F17.1°C 55.4°F13.0°C 77% 1.6 mph 2.6 kmh 3.1 mph5.0 kmh 30.12 in1020.0 mb 0.00 in0.0 mm 0.00 in0.0 mm 0.00 in0.0 mm
06:45 AM 62.8°F17.1°C 55.4°F13.0°C 77% 1.6 mph W2.6 kmh W 3.1 mph5.0 kmh 30.12 in1020.0 mb 0.00 in0.0 mm 0.00 in0.0 mm 0.00 in0.0 mm
06:44 AM 62.8°F17.1°C 55.4°F13.0°C 77% 1.6 mph 2.6 kmh 4.5 mph7.2 kmh 30.12 in1020.0 mb 0.00 in0.0 mm 0.00 in0.0 mm 0.00 in0.0 mm
06:42 AM 62.8°F17.1°C 55.0°F12.8°C 76% 3.1 mph W5.0 kmh W 4.5 mph7.2 kmh 30.12 in1020.0 mb 0.00 in0.0 mm 0.00 in0.0 mm 0.00 in0.0 mm
06:41 AM 62.8°F17.1°C 55.4°F13.0°C 77% 2.2 mph NW3.5 kmh NW 5.4 mph8.7 kmh 30.12 in1020.0 mb 0.00 in0.0 mm 0.00 in0.0 mm 0.00 in0.0 mm
06:39 AM 62.8°F17.1°C 55.0°F12.8°C 76% 1.6 mph 2.6 kmh 2.2 mph3.5 kmh 30.12 in1020.0 mb 0.00 in0.0 mm 0.00 in0.0 mm 0.00 in0.0 mm
06:38 AM 63.0°F17.2°C 54.9°F12.7°C 75% 1.6 mph 2.6 kmh 2.2 mph3.5 kmh 30.11 in1019.6 mb 0.00 in0.0 mm 0.00 in0.0 mm 0.00 in0.0 mm
06:37 AM 63.0°F17.2°C 54.5°F12.5°C 74% 2.2 mph 3.5 kmh 3.1 mph5.0 kmh 30.12 in1020.0 mb 0.00 in0.0 mm 0.00 in0.0 mm 0.00 in0.0 mm
06:36 AM 63.0°F17.2°C 55.2°F12.9°C 76% 2.2 mph 3.5 kmh 6.0 mph9.7 kmh 30.12 in1020.0 mb 0.00 in0.0 mm 0.00 in0.0 mm 0.00 in0.0 mm
06:35 AM 63.0°F17.2°C 54.9°F12.7°C 75% 1.6 mph NW2.6 kmh NW 3.1 mph5.0 kmh 30.12 in1020.0 mb 0.00 in0.0 mm 0.00 in0.0 mm 0.00 in0.0 mm
06:34 AM 63.1°F17.3°C 55.4°F13.0°C 76% 1.6 mph 2.6 kmh 3.1 mph5.0 kmh 30.12 in1020.0 mb 0.00 in0.0 mm 0.00 in0.0 mm 0.00 in0.0 mm
06:31 AM 63.1°F17.3°C 55.0°F12.8°C 75% 2.2 mph 3.5 kmh 4.5 mph7.2 kmh 30.11 in1019.6 mb 0.00 in0.0 mm 0.00 in0.0 mm 0.00 in0.0 mm
06:30 AM 63.1°F17.3°C 55.0°F12.8°C 75% 2.2 mph 3.5 kmh 3.1 mph5.0 kmh 30.12 in1020.0 mb 0.00 in0.0 mm 0.00 in0.0 mm 0.00 in0.0 mm
06:29 AM 63.3°F17.4°C 55.2°F12.9°C 75% 1.6 mph NE2.6 kmh NE 3.1 mph5.0 kmh 30.12 in1020.0 mb 0.00 in0.0 mm 0.00 in0.0 mm 0.00 in0.0 mm
06:28 AM 63.3°F17.4°C 55.6°F13.1°C 76% 1.6 mph 2.6 kmh 3.1 mph5.0 kmh 30.12 in1020.0 mb 0.00 in0.0 mm 0.00 in0.0 mm 0.00 in0.0 mm
06:27 AM 63.5°F17.5°C 55.4°F13.0°C 75% 2.2 mph 3.5 kmh 3.8 mph6.1 kmh 30.11 in1019.6 mb 0.00 in0.0 mm 0.00 in0.0 mm 0.00 in0.0 mm
06:25 AM 63.5°F17.5°C 55.4°F13.0°C 75% 2.2 mph 3.5 kmh 3.8 mph6.1 kmh 30.11 in1019.6 mb 0.00 in0.0 mm 0.00 in0.0 mm 0.00 in0.0 mm
06:24 AM 63.5°F17.5°C 55.4°F13.0°C 75% 2.2 mph 3.5 kmh 3.1 mph5.0 kmh 30.11 in1019.6 mb 0.00 in0.0 mm 0.00 in0.0 mm 0.00 in0.0 mm
06:21 AM 63.7°F17.6°C 55.6°F13.1°C 75% Calm Calm 0.7 mph1.1 kmh 30.11 in1019.6 mb 0.00 in0.0 mm 0.00 in0.0 mm 0.00 in0.0 mm
06:19 AM 63.7°F17.6°C 55.2°F12.9°C 74% Calm Calm 1.6 mph2.6 kmh 30.11 in1019.6 mb 0.00 in0.0 mm 0.00 in0.0 mm 0.00 in0.0 mm
06:17 AM 63.7°F17.6°C 55.6°F13.1°C 75% 0.7 mph W1.1 kmh W 1.6 mph2.6 kmh 30.11 in1019.6 mb 0.00 in0.0 mm 0.00 in0.0 mm 0.00 in0.0 mm
06:15 AM 63.9°F17.7°C 55.8°F13.2°C 75% 0.7 mph 1.1 kmh 3.8 mph6.1 kmh 30.10 in1019.3 mb 0.00 in0.0 mm 0.00 in0.0 mm 0.00 in0.0 mm
06:14 AM 63.9°F17.7°C 55.4°F13.0°C 74% 2.2 mph 3.5 kmh 5.4 mph8.7 kmh 30.10 in1019.3 mb 0.00 in0.0 mm 0.00 in0.0 mm 0.00 in0.0 mm
06:12 AM 63.9°F17.7°C 55.4°F13.0°C 74% 3.8 mph NE6.1 kmh NE 6.0 mph9.7 kmh 30.10 in1019.3 mb 0.00 in0.0 mm 0.00 in0.0 mm 0.00 in0.0 mm
06:11 AM 63.9°F17.7°C 55.4°F13.0°C 74% 0.7 mph 1.1 kmh 5.4 mph8.7 kmh 30.10 in1019.3 mb 0.00 in0.0 mm 0.00 in0.0 mm 0.00 in0.0 mm
06:10 AM 64.0°F17.8°C 55.6°F13.1°C 74% 1.6 mph 2.6 kmh 3.8 mph6.1 kmh 30.10 in1019.3 mb 0.00 in0.0 mm 0.00 in0.0 mm 0.00 in0.0 mm
06:09 AM 64.0°F17.8°C 55.6°F13.1°C 74% 0.7 mph 1.1 kmh 3.8 mph6.1 kmh 30.10 in1019.3 mb 0.00 in0.0 mm 0.00 in0.0 mm 0.00 in0.0 mm
06:07 AM 64.0°F17.8°C 55.6°F13.1°C 74% 1.6 mph E2.6 kmh E 4.5 mph7.2 kmh 30.10 in1019.3 mb 0.00 in0.0 mm 0.00 in0.0 mm 0.00 in0.0 mm
06:05 AM 64.0°F17.8°C 55.6°F13.1°C 74% Calm Calm 1.6 mph2.6 kmh 30.09 in1019.0 mb 0.00 in0.0 mm 0.00 in0.0 mm 0.00 in0.0 mm
06:04 AM 64.2°F17.9°C 56.1°F13.4°C 75% Calm Calm 2.2 mph3.5 kmh 30.09 in1019.0 mb 0.00 in0.0 mm 0.00 in0.0 mm 0.00 in0.0 mm
06:03 AM 64.2°F17.9°C 56.1°F13.4°C 75% Calm Calm 2.2 mph3.5 kmh 30.09 in1019.0 mb 0.00 in0.0 mm 0.00 in0.0 mm 0.00 in0.0 mm
06:02 AM 64.2°F17.9°C 56.5°F13.6°C 76% 0.7 mph 1.1 kmh 1.6 mph2.6 kmh 30.09 in1019.0 mb 0.00 in0.0 mm 0.00 in0.0 mm 0.00 in0.0 mm
06:01 AM 64.2°F17.9°C 56.1°F13.4°C 75% Calm Calm 1.6 mph2.6 kmh 30.09 in1019.0 mb 0.00 in0.0 mm 0.00 in0.0 mm 0.00 in0.0 mm
05:59 AM 64.2°F17.9°C 56.1°F13.4°C 75% 1.6 mph 2.6 kmh 3.8 mph6.1 kmh 30.09 in1019.0 mb 0.00 in0.0 mm 0.00 in0.0 mm 0.00 in0.0 mm
05:57 AM 64.4°F18.0°C 55.9°F13.3°C 74% 3.8 mph NE6.1 kmh NE 8.3 mph13.4 kmh 30.09 in1019.0 mb 0.00 in0.0 mm 0.00 in0.0 mm 0.00 in0.0 mm
05:56 AM 64.4°F18.0°C 55.9°F13.3°C 74% 3.8 mph 6.1 kmh 8.3 mph13.4 kmh 30.09 in1019.0 mb 0.00 in0.0 mm 0.00 in0.0 mm 0.00 in0.0 mm
05:55 AM 64.6°F18.1°C 56.1°F13.4°C 74% 3.1 mph NE5.0 kmh NE 5.4 mph8.7 kmh 30.09 in1019.0 mb 0.00 in0.0 mm 0.00 in0.0 mm 0.00 in0.0 mm
05:52 AM 64.6°F18.1°C 56.1°F13.4°C 74% 1.6 mph 2.6 kmh 5.4 mph8.7 kmh 30.09 in1019.0 mb 0.00 in0.0 mm 0.00 in0.0 mm 0.00 in0.0 mm
05:51 AM 64.6°F18.1°C 56.1°F13.4°C 74% 2.2 mph 3.5 kmh 6.0 mph9.7 kmh 30.09 in1019.0 mb 0.00 in0.0 mm 0.00 in0.0 mm 0.00 in0.0 mm
05:50 AM 64.8°F18.2°C 56.3°F13.5°C 74% Calm Calm 6.0 mph9.7 kmh 30.09 in1019.0 mb 0.00 in0.0 mm 0.00 in0.0 mm 0.00 in0.0 mm
05:49 AM 64.8°F18.2°C 56.3°F13.5°C 74% 2.2 mph 3.5 kmh 6.0 mph9.7 kmh 30.09 in1019.0 mb 0.00 in0.0 mm 0.00 in0.0 mm 0.00 in0.0 mm
05:48 AM 64.8°F18.2°C 56.3°F13.5°C 74% 1.6 mph 2.6 kmh 3.8 mph6.1 kmh 30.09 in1019.0 mb 0.00 in0.0 mm 0.00 in0.0 mm 0.00 in0.0 mm
05:47 AM 64.9°F18.3°C 56.5°F13.6°C 74% 1.6 mph 2.6 kmh 3.8 mph6.1 kmh 30.09 in1019.0 mb 0.00 in0.0 mm 0.00 in0.0 mm 0.00 in0.0 mm
05:45 AM 64.9°F18.3°C 56.5°F13.6°C 74% 2.2 mph NW3.5 kmh NW 4.5 mph7.2 kmh 30.09 in1019.0 mb 0.00 in0.0 mm 0.00 in0.0 mm 0.00 in0.0 mm
05:44 AM 65.1°F18.4°C 56.7°F13.7°C 74% 3.1 mph E5.0 kmh E 5.4 mph8.7 kmh 30.09 in1019.0 mb 0.00 in0.0 mm 0.00 in0.0 mm 0.00 in0.0 mm
05:42 AM 65.1°F18.4°C 56.7°F13.7°C 74% 1.6 mph NE2.6 kmh NE 4.5 mph7.2 kmh 30.09 in1019.0 mb 0.00 in0.0 mm 0.00 in0.0 mm 0.00 in0.0 mm
05:41 AM 65.3°F18.5°C 56.8°F13.8°C 74% 1.6 mph E2.6 kmh E 4.5 mph7.2 kmh 30.09 in1019.0 mb 0.00 in0.0 mm 0.00 in0.0 mm 0.00 in0.0 mm
05:40 AM 65.3°F18.5°C 56.8°F13.8°C 74% 3.8 mph E6.1 kmh E 6.0 mph9.7 kmh 30.09 in1019.0 mb 0.00 in0.0 mm 0.00 in0.0 mm 0.00 in0.0 mm
05:38 AM 65.3°F18.5°C 56.8°F13.8°C 74% 3.8 mph E6.1 kmh E 6.0 mph9.7 kmh 30.09 in1019.0 mb 0.00 in0.0 mm 0.00 in0.0 mm 0.00 in0.0 mm
05:37 AM 65.3°F18.5°C 56.5°F13.6°C 73% 3.1 mph NW5.0 kmh NW 6.9 mph11.1 kmh 30.08 in1018.6 mb 0.00 in0.0 mm 0.00 in0.0 mm 0.00 in0.0 mm
05:36 AM 65.5°F18.6°C 56.7°F13.7°C 73% 3.1 mph 5.0 kmh 6.0 mph9.7 kmh 30.08 in1018.6 mb 0.00 in0.0 mm 0.00 in0.0 mm 0.00 in0.0 mm
05:34 AM 65.7°F18.7°C 57.2°F14.0°C 74% Calm Calm -- 30.09 in1019.0 mb 0.00 in0.0 mm 0.00 in0.0 mm 0.00 in0.0 mm
05:32 AM 65.7°F18.7°C 57.2°F14.0°C 74% Calm Calm -- 30.09 in1019.0 mb 0.00 in0.0 mm 0.00 in0.0 mm 0.00 in0.0 mm
05:31 AM 65.7°F18.7°C 56.3°F13.5°C 72% Calm Calm -- 30.08 in1018.6 mb 0.00 in0.0 mm 0.00 in0.0 mm 0.00 in0.0 mm
05:29 AM 65.8°F18.8°C 56.1°F13.4°C 71% 0.7 mph S1.1 kmh S 3.8 mph6.1 kmh 30.08 in1018.6 mb 0.00 in0.0 mm 0.00 in0.0 mm 0.00 in0.0 mm
05:28 AM 65.8°F18.8°C 56.5°F13.6°C 72% 1.6 mph 2.6 kmh 4.5 mph7.2 kmh 30.08 in1018.6 mb 0.00 in0.0 mm 0.00 in0.0 mm 0.00 in0.0 mm
05:27 AM 65.8°F18.8°C 57.0°F13.9°C 73% 1.6 mph W2.6 kmh W 4.5 mph7.2 kmh 30.09 in1019.0 mb 0.00 in0.0 mm 0.00 in0.0 mm 0.00 in0.0 mm
05:25 AM 65.8°F18.8°C 57.0°F13.9°C 73% 0.7 mph 1.1 kmh 3.8 mph6.1 kmh 30.09 in1019.0 mb 0.00 in0.0 mm 0.00 in0.0 mm 0.00 in0.0 mm
05:24 AM 66.0°F18.9°C 57.2°F14.0°C 73% 1.6 mph W2.6 kmh W 3.8 mph6.1 kmh 30.08 in1018.6 mb 0.00 in0.0 mm 0.00 in0.0 mm 0.00 in0.0 mm
05:23 AM 66.0°F18.9°C 57.2°F14.0°C 73% 2.2 mph W3.5 kmh W 3.8 mph6.1 kmh 30.08 in1018.6 mb 0.00 in0.0 mm 0.00 in0.0 mm 0.00 in0.0 mm
05:21 AM 66.2°F19.0°C 57.2°F14.0°C 73% Calm Calm 0.7 mph1.1 kmh 30.08 in1018.6 mb 0.00 in0.0 mm 0.00 in0.0 mm 0.00 in0.0 mm
05:20 AM 66.2°F19.0°C 57.2°F14.0°C 73% Calm Calm 1.6 mph2.6 kmh 30.08 in1018.6 mb 0.00 in0.0 mm 0.00 in0.0 mm 0.00 in0.0 mm
05:18 AM 66.4°F19.1°C 57.4°F14.1°C 73% 0.7 mph W1.1 kmh W 1.6 mph2.6 kmh 30.08 in1018.6 mb 0.00 in0.0 mm 0.00 in0.0 mm 0.00 in0.0 mm
05:17 AM 66.4°F19.1°C 57.0°F13.9°C 72% Calm Calm -- 30.08 in1018.6 mb 0.00 in0.0 mm 0.00 in0.0 mm 0.00 in0.0 mm
05:15 AM 66.4°F19.1°C 57.9°F14.4°C 74% Calm Calm -- 30.08 in1018.6 mb 0.00 in0.0 mm 0.00 in0.0 mm 0.00 in0.0 mm
05:14 AM 66.6°F19.2°C 58.1°F14.5°C 74% Calm Calm -- 30.08 in1018.6 mb 0.00 in0.0 mm 0.00 in0.0 mm 0.00 in0.0 mm
05:12 AM 66.6°F19.2°C 57.6°F14.2°C 73% Calm Calm 0.7 mph1.1 kmh 30.08 in1018.6 mb 0.00 in0.0 mm 0.00 in0.0 mm 0.00 in0.0 mm
05:11 AM 66.6°F19.2°C 57.6°F14.2°C 73% Calm Calm 3.8 mph6.1 kmh 30.08 in1018.6 mb 0.00 in0.0 mm 0.00 in0.0 mm 0.00 in0.0 mm
05:10 AM 66.6°F19.2°C 57.2°F14.0°C 72% 1.6 mph E2.6 kmh E 5.4 mph8.7 kmh 30.08 in1018.6 mb 0.00 in0.0 mm 0.00 in0.0 mm 0.00 in0.0 mm
05:09 AM 66.7°F19.3°C 57.4°F14.1°C 72% 2.2 mph E3.5 kmh E 5.4 mph8.7 kmh 30.08 in1018.6 mb 0.00 in0.0 mm 0.00 in0.0 mm 0.00 in0.0 mm
05:08 AM 66.7°F19.3°C 55.4°F13.0°C 67% 1.6 mph E2.6 kmh E 3.1 mph5.0 kmh 30.08 in1018.6 mb 0.00 in0.0 mm 0.00 in0.0 mm 0.00 in0.0 mm
05:07 AM 66.7°F19.3°C 55.8°F13.2°C 68% 0.7 mph NE1.1 kmh NE 2.2 mph3.5 kmh 30.08 in1018.6 mb 0.00 in0.0 mm 0.00 in0.0 mm 0.00 in0.0 mm
05:05 AM 66.9°F19.4°C 56.8°F13.8°C 70% Calm Calm 3.1 mph5.0 kmh 30.08 in1018.6 mb 0.00 in0.0 mm 0.00 in0.0 mm 0.00 in0.0 mm
05:04 AM 66.9°F19.4°C 57.6°F14.2°C 72% 0.7 mph NW1.1 kmh NW 2.2 mph3.5 kmh 30.08 in1018.6 mb 0.00 in0.0 mm 0.00 in0.0 mm 0.00 in0.0 mm
05:03 AM 66.9°F19.4°C 57.6°F14.2°C 72% 0.7 mph 1.1 kmh 4.5 mph7.2 kmh 30.08 in1018.6 mb 0.00 in0.0 mm 0.00 in0.0 mm 0.00 in0.0 mm
05:02 AM 66.9°F19.4°C 57.6°F14.2°C 72% 0.7 mph 1.1 kmh 3.1 mph5.0 kmh 30.08 in1018.6 mb 0.00 in0.0 mm 0.00 in0.0 mm 0.00 in0.0 mm
05:01 AM 67.1°F19.5°C 57.7°F14.3°C 72% Calm Calm -- 30.08 in1018.6 mb 0.00 in0.0 mm 0.00 in0.0 mm 0.00 in0.0 mm
05:00 AM 67.1°F19.5°C 57.7°F14.3°C 72% Calm Calm -- 30.08 in1018.6 mb 0.00 in0.0 mm 0.00 in0.0 mm 0.00 in0.0 mm
04:58 AM 67.3°F19.6°C 57.9°F14.4°C 72% Calm Calm 0.7 mph1.1 kmh 30.08 in1018.6 mb 0.00 in0.0 mm 0.00 in0.0 mm 0.00 in0.0 mm
04:57 AM 67.3°F19.6°C 57.9°F14.4°C 72% 0.7 mph E1.1 kmh E 2.2 mph3.5 kmh 30.08 in1018.6 mb 0.00 in0.0 mm 0.00 in0.0 mm 0.00 in0.0 mm
04:56 AM 67.3°F19.6°C 58.3°F14.6°C 73% 0.7 mph E1.1 kmh E 3.8 mph6.1 kmh 30.08 in1018.6 mb 0.00 in0.0 mm 0.00 in0.0 mm 0.00 in0.0 mm
04:55 AM 67.5°F19.7°C 58.1°F14.5°C 72% 3.1 mph E5.0 kmh E 4.5 mph7.2 kmh 30.08 in1018.6 mb 0.00 in0.0 mm 0.00 in0.0 mm 0.00 in0.0 mm
04:54 AM 67.5°F19.7°C 58.1°F14.5°C 72% Calm Calm 1.6 mph2.6 kmh 30.08 in1018.6 mb 0.00 in0.0 mm 0.00 in0.0 mm 0.00 in0.0 mm
04:53 AM 67.5°F19.7°C 57.7°F14.3°C 71% Calm Calm 2.2 mph3.5 kmh 30.08 in1018.6 mb 0.00 in0.0 mm 0.00 in0.0 mm 0.00 in0.0 mm
04:51 AM 67.6°F19.8°C 57.9°F14.4°C 71% Calm Calm -- 30.08 in1018.6 mb 0.00 in0.0 mm 0.00 in0.0 mm 0.00 in0.0 mm
04:50 AM 67.6°F19.8°C 58.3°F14.6°C 72% Calm Calm 1.6 mph2.6 kmh 30.08 in1018.6 mb 0.00 in0.0 mm 0.00 in0.0 mm 0.00 in0.0 mm
04:49 AM 67.6°F19.8°C 58.3°F14.6°C 72% Calm Calm 1.6 mph2.6 kmh 30.08 in1018.6 mb 0.00 in0.0 mm 0.00 in0.0 mm 0.00 in0.0 mm
04:47 AM 67.6°F19.8°C 57.9°F14.4°C 71% Calm Calm 1.6 mph2.6 kmh 30.08 in1018.6 mb 0.00 in0.0 mm 0.00 in0.0 mm 0.00 in0.0 mm
04:45 AM 67.8°F19.9°C 58.1°F14.5°C 71% Calm Calm 2.2 mph3.5 kmh 30.08 in1018.6 mb 0.00 in0.0 mm 0.00 in0.0 mm 0.00 in0.0 mm
04:44 AM 67.8°F19.9°C 58.1°F14.5°C 71% 0.7 mph E1.1 kmh E 1.6 mph2.6 kmh 30.08 in1018.6 mb 0.00 in0.0 mm 0.00 in0.0 mm 0.00 in0.0 mm
04:41 AM 67.8°F19.9°C 58.1°F14.5°C 71% Calm Calm 1.6 mph2.6 kmh 30.08 in1018.6 mb 0.00 in0.0 mm 0.00 in0.0 mm 0.00 in0.0 mm
04:40 AM 67.8°F19.9°C 58.1°F14.5°C 71% Calm Calm 1.6 mph2.6 kmh 30.09 in1019.0 mb 0.00 in0.0 mm 0.00 in0.0 mm 0.00 in0.0 mm
04:38 AM 67.8°F19.9°C 58.1°F14.5°C 71% 0.7 mph S1.1 kmh S 1.6 mph2.6 kmh 30.08 in1018.6 mb 0.00 in0.0 mm 0.00 in0.0 mm 0.00 in0.0 mm
04:37 AM 67.8°F19.9°C 58.1°F14.5°C 71% 1.6 mph 2.6 kmh 3.8 mph6.1 kmh 30.08 in1018.6 mb 0.00 in0.0 mm 0.00 in0.0 mm 0.00 in0.0 mm
04:36 AM 67.8°F19.9°C 57.7°F14.3°C 70% 1.6 mph W2.6 kmh W 3.8 mph6.1 kmh 30.08 in1018.6 mb 0.00 in0.0 mm 0.00 in0.0 mm 0.00 in0.0 mm
04:35 AM 67.8°F19.9°C 57.7°F14.3°C 70% 2.2 mph 3.5 kmh 5.4 mph8.7 kmh 30.07 in1018.3 mb 0.00 in0.0 mm 0.00 in0.0 mm 0.00 in0.0 mm
04:34 AM 67.8°F19.9°C 58.1°F14.5°C 71% Calm Calm 2.2 mph3.5 kmh 30.08 in1018.6 mb 0.00 in0.0 mm 0.00 in0.0 mm 0.00 in0.0 mm
04:33 AM 67.8°F19.9°C 58.1°F14.5°C 71% Calm Calm 3.8 mph6.1 kmh 30.08 in1018.6 mb 0.00 in0.0 mm 0.00 in0.0 mm 0.00 in0.0 mm
04:31 AM 67.8°F19.9°C 57.7°F14.3°C 70% 1.6 mph NE2.6 kmh NE 3.8 mph6.1 kmh 30.07 in1018.3 mb 0.00 in0.0 mm 0.00 in0.0 mm 0.00 in0.0 mm
04:30 AM 67.8°F19.9°C 57.7°F14.3°C 70% 1.6 mph E2.6 kmh E 5.4 mph8.7 kmh 30.08 in1018.6 mb 0.00 in0.0 mm 0.00 in0.0 mm 0.00 in0.0 mm
04:27 AM 67.8°F19.9°C 57.7°F14.3°C 70% 1.6 mph W2.6 kmh W 3.8 mph6.1 kmh 30.08 in1018.6 mb 0.00 in0.0 mm 0.00 in0.0 mm 0.00 in0.0 mm
04:25 AM 67.8°F19.9°C 57.7°F14.3°C 70% Calm Calm 6.0 mph9.7 kmh 30.08 in1018.6 mb 0.00 in0.0 mm 0.00 in0.0 mm 0.00 in0.0 mm
04:24 AM 67.8°F19.9°C 57.7°F14.3°C 70% 2.2 mph W3.5 kmh W 6.0 mph9.7 kmh 30.07 in1018.3 mb 0.00 in0.0 mm 0.00 in0.0 mm 0.00 in0.0 mm
04:23 AM 68.0°F20.0°C 57.9°F14.4°C 70% 2.2 mph W3.5 kmh W 6.0 mph9.7 kmh 30.07 in1018.3 mb 0.00 in0.0 mm 0.00 in0.0 mm 0.00 in0.0 mm
04:22 AM 68.0°F20.0°C 58.3°F14.6°C 71% 0.7 mph 1.1 kmh 1.6 mph2.6 kmh 30.08 in1018.6 mb 0.00 in0.0 mm 0.00 in0.0 mm 0.00 in0.0 mm
04:21 AM 68.0°F20.0°C 58.3°F14.6°C 71% Calm Calm 3.8 mph6.1 kmh 30.07 in1018.3 mb 0.00 in0.0 mm 0.00 in0.0 mm 0.00 in0.0 mm
04:20 AM 68.0°F20.0°C 57.9°F14.4°C 70% Calm Calm 2.2 mph3.5 kmh 30.08 in1018.6 mb 0.00 in0.0 mm 0.00 in0.0 mm 0.00 in0.0 mm
04:18 AM 68.0°F20.0°C 58.3°F14.6°C 71% 0.7 mph E1.1 kmh E 3.8 mph6.1 kmh 30.07 in1018.3 mb 0.00 in0.0 mm 0.00 in0.0 mm 0.00 in0.0 mm
04:17 AM 68.0°F20.0°C 57.9°F14.4°C 70% 1.6 mph 2.6 kmh 3.8 mph6.1 kmh 30.08 in1018.6 mb 0.00 in0.0 mm 0.00 in0.0 mm 0.00 in0.0 mm
04:16 AM 68.0°F20.0°C 57.4°F14.1°C 69% 1.6 mph E2.6 kmh E 3.1 mph5.0 kmh 30.07 in1018.3 mb 0.00 in0.0 mm 0.00 in0.0 mm 0.00 in0.0 mm
04:15 AM 68.0°F20.0°C 57.9°F14.4°C 70% 0.7 mph W1.1 kmh W 6.0 mph9.7 kmh 30.08 in1018.6 mb 0.00 in0.0 mm 0.00 in0.0 mm 0.00 in0.0 mm
04:14 AM 68.0°F20.0°C 57.9°F14.4°C 70% 1.6 mph S2.6 kmh S 6.0 mph9.7 kmh 30.08 in1018.6 mb 0.00 in0.0 mm 0.00 in0.0 mm 0.00 in0.0 mm
04:13 AM 68.2°F20.1°C 58.1°F14.5°C 70% 3.1 mph E5.0 kmh E 6.0 mph9.7 kmh 30.08 in1018.6 mb 0.00 in0.0 mm 0.00 in0.0 mm 0.00 in0.0 mm
04:10 AM 68.2°F20.1°C 58.1°F14.5°C 70% 3.8 mph E6.1 kmh E 9.2 mph14.8 kmh 30.08 in1018.6 mb 0.00 in0.0 mm 0.00 in0.0 mm 0.00 in0.0 mm
04:09 AM 68.2°F20.1°C 58.1°F14.5°C 70% 0.7 mph S1.1 kmh S 6.9 mph11.1 kmh 30.08 in1018.6 mb 0.00 in0.0 mm 0.00 in0.0 mm 0.00 in0.0 mm
04:08 AM 68.2°F20.1°C 57.6°F14.2°C 69% 2.2 mph W3.5 kmh W 6.9 mph11.1 kmh 30.09 in1019.0 mb 0.00 in0.0 mm 0.00 in0.0 mm 0.00 in0.0 mm
04:04 AM 68.4°F20.2°C 57.7°F14.3°C 69% 2.2 mph 3.5 kmh 6.0 mph9.7 kmh 30.09 in1019.0 mb 0.00 in0.0 mm 0.00 in0.0 mm 0.00 in0.0 mm
04:03 AM 68.4°F20.2°C 57.7°F14.3°C 69% 3.1 mph NE5.0 kmh NE 6.9 mph11.1 kmh 30.09 in1019.0 mb 0.00 in0.0 mm 0.00 in0.0 mm 0.00 in0.0 mm
04:02 AM 68.4°F20.2°C 57.7°F14.3°C 69% 2.2 mph E3.5 kmh E 6.0 mph9.7 kmh 30.09 in1019.0 mb 0.00 in0.0 mm 0.00 in0.0 mm 0.00 in0.0 mm
03:58 AM 68.4°F20.2°C 57.7°F14.3°C 69% Calm Calm 2.2 mph3.5 kmh 30.09 in1019.0 mb 0.00 in0.0 mm 0.00 in0.0 mm 0.00 in0.0 mm
03:57 AM 68.4°F20.2°C 57.7°F14.3°C 69% Calm Calm 2.2 mph3.5 kmh 30.09 in1019.0 mb 0.00 in0.0 mm 0.00 in0.0 mm 0.00 in0.0 mm
03:56 AM 68.4°F20.2°C 57.7°F14.3°C 69% Calm Calm 3.8 mph6.1 kmh 30.08 in1018.6 mb 0.00 in0.0 mm 0.00 in0.0 mm 0.00 in0.0 mm
03:55 AM 68.4°F20.2°C 57.4°F14.1°C 68% 1.6 mph NW2.6 kmh NW 3.8 mph6.1 kmh 30.09 in1019.0 mb 0.00 in0.0 mm 0.00 in0.0 mm 0.00 in0.0 mm
03:54 AM 68.4°F20.2°C 57.7°F14.3°C 69% Calm Calm 1.6 mph2.6 kmh 30.09 in1019.0 mb 0.00 in0.0 mm 0.00 in0.0 mm 0.00 in0.0 mm
03:53 AM 68.4°F20.2°C 57.4°F14.1°C 68% Calm Calm 5.4 mph8.7 kmh 30.09 in1019.0 mb 0.00 in0.0 mm 0.00 in0.0 mm 0.00 in0.0 mm
03:51 AM 68.4°F20.2°C 57.4°F14.1°C 68% 2.2 mph 3.5 kmh 5.4 mph8.7 kmh 30.09 in1019.0 mb 0.00 in0.0 mm 0.00 in0.0 mm 0.00 in0.0 mm
03:49 AM 68.5°F20.3°C 57.6°F14.2°C 68% 2.2 mph S3.5 kmh S -- 30.09 in1019.0 mb 0.00 in0.0 mm 0.00 in0.0 mm 0.00 in0.0 mm
03:47 AM 68.5°F20.3°C 57.6°F14.2°C 68% 2.2 mph S3.5 kmh S -- 30.09 in1019.0 mb 0.00 in0.0 mm 0.00 in0.0 mm 0.00 in0.0 mm
03:44 AM 68.7°F20.4°C 57.7°F14.3°C 68% 0.7 mph W1.1 kmh W 9.2 mph14.8 kmh 30.08 in1018.6 mb 0.00 in0.0 mm 0.00 in0.0 mm 0.00 in0.0 mm
03:41 AM 68.7°F20.4°C 57.7°F14.3°C 68% 3.1 mph W5.0 kmh W 7.6 mph12.2 kmh 30.08 in1018.6 mb 0.00 in0.0 mm 0.00 in0.0 mm 0.00 in0.0 mm
03:37 AM 68.7°F20.4°C 57.7°F14.3°C 68% 2.2 mph W3.5 kmh W 6.0 mph9.7 kmh 30.09 in1019.0 mb 0.00 in0.0 mm 0.00 in0.0 mm 0.00 in0.0 mm
03:36 AM 68.9°F20.5°C 57.9°F14.4°C 68% 3.1 mph W5.0 kmh W 9.2 mph14.8 kmh 30.09 in1019.0 mb 0.00 in0.0 mm 0.00 in0.0 mm 0.00 in0.0 mm
03:34 AM 68.9°F20.5°C 57.9°F14.4°C 68% 0.7 mph SW1.1 kmh SW 3.1 mph5.0 kmh 30.09 in1019.0 mb 0.00 in0.0 mm 0.00 in0.0 mm 0.00 in0.0 mm
03:33 AM 68.9°F20.5°C 57.9°F14.4°C 68% 0.7 mph W1.1 kmh W 4.5 mph7.2 kmh 30.09 in1019.0 mb 0.00 in0.0 mm 0.00 in0.0 mm 0.00 in0.0 mm
03:32 AM 68.9°F20.5°C 57.6°F14.2°C 67% 2.2 mph W3.5 kmh W 4.5 mph7.2 kmh 30.09 in1019.0 mb 0.00 in0.0 mm 0.00 in0.0 mm 0.00 in0.0 mm
03:31 AM 68.9°F20.5°C 57.6°F14.2°C 67% 1.6 mph W2.6 kmh W 2.2 mph3.5 kmh 30.09 in1019.0 mb 0.00 in0.0 mm 0.00 in0.0 mm 0.00 in0.0 mm
03:30 AM 68.9°F20.5°C 57.6°F14.2°C 67% 0.7 mph W1.1 kmh W 7.6 mph12.2 kmh 30.09 in1019.0 mb 0.00 in0.0 mm 0.00 in0.0 mm 0.00 in0.0 mm
03:29 AM 69.1°F20.6°C 57.7°F14.3°C 67% 3.8 mph W6.1 kmh W 7.6 mph12.2 kmh 30.09 in1019.0 mb 0.00 in0.0 mm 0.00 in0.0 mm 0.00 in0.0 mm
03:27 AM 69.1°F20.6°C 57.7°F14.3°C 67% 0.7 mph 1.1 kmh 7.6 mph12.2 kmh 30.09 in1019.0 mb 0.00 in0.0 mm 0.00 in0.0 mm 0.00 in0.0 mm
03:26 AM 69.3°F20.7°C 57.9°F14.4°C 67% 3.1 mph W5.0 kmh W 7.6 mph12.2 kmh 30.09 in1019.0 mb 0.00 in0.0 mm 0.00 in0.0 mm 0.00 in0.0 mm
03:25 AM 69.3°F20.7°C 57.9°F14.4°C 67% 1.6 mph W2.6 kmh W 4.5 mph7.2 kmh 30.09 in1019.0 mb 0.00 in0.0 mm 0.00 in0.0 mm 0.00 in0.0 mm
03:24 AM 69.3°F20.7°C 58.3°F14.6°C 68% 1.6 mph W2.6 kmh W 4.5 mph7.2 kmh 30.09 in1019.0 mb 0.00 in0.0 mm 0.00 in0.0 mm 0.00 in0.0 mm
03:23 AM 69.4°F20.8°C 57.9°F14.4°C 67% 0.7 mph S1.1 kmh S 3.1 mph5.0 kmh 30.09 in1019.0 mb 0.00 in0.0 mm 0.00 in0.0 mm 0.00 in0.0 mm
03:21 AM 69.4°F20.8°C 57.9°F14.4°C 67% 0.7 mph W1.1 kmh W 2.2 mph3.5 kmh 30.09 in1019.0 mb 0.00 in0.0 mm 0.00 in0.0 mm 0.00 in0.0 mm
03:19 AM 69.6°F20.9°C 58.6°F14.8°C 68% 1.6 mph W2.6 kmh W 6.0 mph9.7 kmh 30.09 in1019.0 mb 0.00 in0.0 mm 0.00 in0.0 mm 0.00 in0.0 mm
03:18 AM 69.6°F20.9°C 58.1°F14.5°C 67% 1.6 mph 2.6 kmh 5.4 mph8.7 kmh 30.09 in1019.0 mb 0.00 in0.0 mm 0.00 in0.0 mm 0.00 in0.0 mm
03:17 AM 69.8°F21.0°C 57.9°F14.4°C 66% 2.2 mph SE3.5 kmh SE 3.8 mph6.1 kmh 30.09 in1019.0 mb 0.00 in0.0 mm 0.00 in0.0 mm 0.00 in0.0 mm
03:16 AM 69.8°F21.0°C 57.9°F14.4°C 66% 2.2 mph SW3.5 kmh SW 5.4 mph8.7 kmh 30.09 in1019.0 mb 0.00 in0.0 mm 0.00 in0.0 mm 0.00 in0.0 mm
03:12 AM 70.2°F21.2°C 58.3°F14.6°C 66% 1.6 mph W2.6 kmh W 4.5 mph7.2 kmh 30.09 in1019.0 mb 0.00 in0.0 mm 0.00 in0.0 mm 0.00 in0.0 mm
03:11 AM 70.2°F21.2°C 58.3°F14.6°C 66% 2.2 mph S3.5 kmh S 4.5 mph7.2 kmh 30.08 in1018.6 mb 0.00 in0.0 mm 0.00 in0.0 mm 0.00 in0.0 mm
03:09 AM 70.3°F21.3°C 58.1°F14.5°C 65% 1.6 mph NW2.6 kmh NW 3.1 mph5.0 kmh 30.09 in1019.0 mb 0.00 in0.0 mm 0.00 in0.0 mm 0.00 in0.0 mm
03:07 AM 70.3°F21.3°C 58.1°F14.5°C 65% Calm Calm 3.8 mph6.1 kmh 30.09 in1019.0 mb 0.00 in0.0 mm 0.00 in0.0 mm 0.00 in0.0 mm
03:06 AM 70.3°F21.3°C 58.1°F14.5°C 65% 1.6 mph S2.6 kmh S 5.4 mph8.7 kmh 30.09 in1019.0 mb 0.00 in0.0 mm 0.00 in0.0 mm 0.00 in0.0 mm
03:05 AM 70.3°F21.3°C 57.6°F14.2°C 64% 1.6 mph S2.6 kmh S 5.4 mph8.7 kmh 30.09 in1019.0 mb 0.00 in0.0 mm 0.00 in0.0 mm 0.00 in0.0 mm
03:04 AM 70.3°F21.3°C 57.6°F14.2°C 64% 1.6 mph S2.6 kmh S 5.4 mph8.7 kmh 30.09 in1019.0 mb 0.00 in0.0 mm 0.00 in0.0 mm 0.00 in0.0 mm
03:03 AM 70.3°F21.3°C 58.1°F14.5°C 65% 2.2 mph SW3.5 kmh SW 5.4 mph8.7 kmh 30.09 in1019.0 mb 0.00 in0.0 mm 0.00 in0.0 mm 0.00 in0.0 mm
03:02 AM 70.5°F21.4°C 57.7°F14.3°C 64% 2.2 mph W3.5 kmh W 5.4 mph8.7 kmh 30.09 in1019.0 mb 0.00 in0.0 mm 0.00 in0.0 mm 0.00 in0.0 mm
03:00 AM 70.5°F21.4°C 57.7°F14.3°C 64% 4.5 mph NW7.2 kmh NW 9.2 mph14.8 kmh 30.09 in1019.0 mb 0.00 in0.0 mm 0.00 in0.0 mm 0.00 in0.0 mm
02:59 AM 70.5°F21.4°C 57.7°F14.3°C 64% 2.2 mph NW3.5 kmh NW 5.4 mph8.7 kmh 30.09 in1019.0 mb 0.00 in0.0 mm 0.00 in0.0 mm 0.00 in0.0 mm
02:58 AM 70.5°F21.4°C 57.7°F14.3°C 64% 1.6 mph W2.6 kmh W 5.4 mph8.7 kmh 30.09 in1019.0 mb 0.00 in0.0 mm 0.00 in0.0 mm 0.00 in0.0 mm
02:57 AM 70.5°F21.4°C 57.7°F14.3°C 64% 2.2 mph W3.5 kmh W 6.0 mph9.7 kmh 30.09 in1019.0 mb 0.00 in0.0 mm 0.00 in0.0 mm 0.00 in0.0 mm
02:56 AM 70.3°F21.3°C 57.6°F14.2°C 64% 2.2 mph E3.5 kmh E 6.9 mph11.1 kmh 30.10 in1019.3 mb 0.00 in0.0 mm 0.00 in0.0 mm 0.00 in0.0 mm
02:54 AM 70.3°F21.3°C 57.6°F14.2°C 64% 3.1 mph 5.0 kmh 6.9 mph11.1 kmh 30.10 in1019.3 mb 0.00 in0.0 mm 0.00 in0.0 mm 0.00 in0.0 mm
02:52 AM 70.3°F21.3°C 57.6°F14.2°C 64% 2.2 mph 3.5 kmh 5.4 mph8.7 kmh 30.10 in1019.3 mb 0.00 in0.0 mm 0.00 in0.0 mm 0.00 in0.0 mm
02:51 AM 70.3°F21.3°C 57.6°F14.2°C 64% 2.2 mph E3.5 kmh E 11.4 mph18.3 kmh 30.10 in1019.3 mb 0.00 in0.0 mm 0.00 in0.0 mm 0.00 in0.0 mm
02:50 AM 70.3°F21.3°C 57.6°F14.2°C 64% 2.2 mph SE3.5 kmh SE 3.8 mph6.1 kmh 30.09 in1019.0 mb 0.00 in0.0 mm 0.00 in0.0 mm 0.00 in0.0 mm
02:49 AM 70.3°F21.3°C 57.6°F14.2°C 64% 2.2 mph S3.5 kmh S 3.8 mph6.1 kmh 30.10 in1019.3 mb 0.00 in0.0 mm 0.00 in0.0 mm 0.00 in0.0 mm
02:47 AM 70.3°F21.3°C 57.2°F14.0°C 63% 2.2 mph 3.5 kmh 4.5 mph7.2 kmh 30.10 in1019.3 mb 0.00 in0.0 mm 0.00 in0.0 mm 0.00 in0.0 mm
02:46 AM 70.3°F21.3°C 57.2°F14.0°C 63% 1.6 mph SE2.6 kmh SE 4.5 mph7.2 kmh 30.10 in1019.3 mb 0.00 in0.0 mm 0.00 in0.0 mm 0.00 in0.0 mm
02:45 AM 70.3°F21.3°C 57.6°F14.2°C 64% 1.6 mph W2.6 kmh W 5.4 mph8.7 kmh 30.09 in1019.0 mb 0.00 in0.0 mm 0.00 in0.0 mm 0.00 in0.0 mm
02:44 AM 70.3°F21.3°C 57.6°F14.2°C 64% 2.2 mph S3.5 kmh S 6.0 mph9.7 kmh 30.10 in1019.3 mb 0.00 in0.0 mm 0.00 in0.0 mm 0.00 in0.0 mm
02:43 AM 70.3°F21.3°C 57.2°F14.0°C 63% 3.1 mph NE5.0 kmh NE 9.8 mph15.8 kmh 30.10 in1019.3 mb 0.00 in0.0 mm 0.00 in0.0 mm 0.00 in0.0 mm
02:40 AM 70.3°F21.3°C 57.6°F14.2°C 64% 2.2 mph NE3.5 kmh NE 8.3 mph13.4 kmh 30.10 in1019.3 mb 0.00 in0.0 mm 0.00 in0.0 mm 0.00 in0.0 mm
02:38 AM 70.2°F21.2°C 57.4°F14.1°C 64% 1.6 mph SE2.6 kmh SE 8.3 mph13.4 kmh 30.10 in1019.3 mb 0.00 in0.0 mm 0.00 in0.0 mm 0.00 in0.0 mm
02:36 AM 70.2°F21.2°C 57.4°F14.1°C 64% 3.1 mph S5.0 kmh S 4.5 mph7.2 kmh 30.10 in1019.3 mb 0.00 in0.0 mm 0.00 in0.0 mm 0.00 in0.0 mm
02:34 AM 70.2°F21.2°C 57.4°F14.1°C 64% 2.2 mph SE3.5 kmh SE 4.5 mph7.2 kmh 30.10 in1019.3 mb 0.00 in0.0 mm 0.00 in0.0 mm 0.00 in0.0 mm
02:33 AM 70.2°F21.2°C 57.4°F14.1°C 64% 2.2 mph 3.5 kmh 12.1 mph19.5 kmh 30.10 in1019.3 mb 0.00 in0.0 mm 0.00 in0.0 mm 0.00 in0.0 mm
02:32 AM 70.0°F21.1°C 57.2°F14.0°C 64% 3.1 mph E5.0 kmh E 12.1 mph19.5 kmh 30.11 in1019.6 mb 0.00 in0.0 mm 0.00 in0.0 mm 0.00 in0.0 mm
02:30 AM 69.8°F21.0°C 57.0°F13.9°C 64% 1.6 mph S2.6 kmh S 6.9 mph11.1 kmh 30.10 in1019.3 mb 0.00 in0.0 mm 0.00 in0.0 mm 0.00 in0.0 mm
02:29 AM 69.8°F21.0°C 57.0°F13.9°C 64% 2.2 mph NW3.5 kmh NW 6.9 mph11.1 kmh 30.10 in1019.3 mb 0.00 in0.0 mm 0.00 in0.0 mm 0.00 in0.0 mm
02:27 AM 69.8°F21.0°C 57.0°F13.9°C 64% 2.2 mph S3.5 kmh S 4.5 mph7.2 kmh 30.10 in1019.3 mb 0.00 in0.0 mm 0.00 in0.0 mm 0.00 in0.0 mm
02:26 AM 69.8°F21.0°C 57.6°F14.2°C 65% 2.2 mph SW3.5 kmh SW 9.8 mph15.8 kmh 30.10 in1019.3 mb 0.00 in0.0 mm 0.00 in0.0 mm 0.00 in0.0 mm
02:25 AM 69.6°F20.9°C 56.8°F13.8°C 64% 3.8 mph W6.1 kmh W 10.7 mph17.2 kmh 30.10 in1019.3 mb 0.00 in0.0 mm 0.00 in0.0 mm 0.00 in0.0 mm
02:24 AM 69.6°F20.9°C 56.8°F13.8°C 64% 4.5 mph 7.2 kmh 10.7 mph17.2 kmh 30.11 in1019.6 mb 0.00 in0.0 mm 0.00 in0.0 mm 0.00 in0.0 mm
02:23 AM 69.6°F20.9°C 57.4°F14.1°C 65% 1.6 mph W2.6 kmh W 3.1 mph5.0 kmh 30.10 in1019.3 mb 0.00 in0.0 mm 0.00 in0.0 mm 0.00 in0.0 mm
02:20 AM 69.6°F20.9°C 57.4°F14.1°C 65% 5.4 mph SW8.7 kmh SW 10.7 mph17.2 kmh 30.10 in1019.3 mb 0.00 in0.0 mm 0.00 in0.0 mm 0.00 in0.0 mm
02:13 AM 69.6°F20.9°C 57.7°F14.3°C 66% 1.6 mph NE2.6 kmh NE 3.8 mph6.1 kmh 30.11 in1019.6 mb 0.00 in0.0 mm 0.00 in0.0 mm 0.00 in0.0 mm
02:11 AM 69.6°F20.9°C 57.4°F14.1°C 65% 3.1 mph SW5.0 kmh SW 9.8 mph15.8 kmh 30.11 in1019.6 mb 0.00 in0.0 mm 0.00 in0.0 mm 0.00 in0.0 mm
02:10 AM 69.6°F20.9°C 57.7°F14.3°C 66% 1.6 mph SW2.6 kmh SW 4.5 mph7.2 kmh 30.11 in1019.6 mb 0.00 in0.0 mm 0.00 in0.0 mm 0.00 in0.0 mm
02:06 AM 69.6°F20.9°C 57.7°F14.3°C 66% 0.7 mph W1.1 kmh W 3.8 mph6.1 kmh 30.11 in1019.6 mb 0.00 in0.0 mm 0.00 in0.0 mm 0.00 in0.0 mm
02:05 AM 69.6°F20.9°C 57.4°F14.1°C 65% 1.6 mph W2.6 kmh W 4.5 mph7.2 kmh 30.11 in1019.6 mb 0.00 in0.0 mm 0.00 in0.0 mm 0.00 in0.0 mm
02:04 AM 69.6°F20.9°C 57.7°F14.3°C 66% 1.6 mph SW2.6 kmh SW 4.5 mph7.2 kmh 30.12 in1020.0 mb 0.00 in0.0 mm 0.00 in0.0 mm 0.00 in0.0 mm
02:03 AM 69.6°F20.9°C 57.7°F14.3°C 66% 1.6 mph SE2.6 kmh SE 6.9 mph11.1 kmh 30.12 in1020.0 mb 0.00 in0.0 mm 0.00 in0.0 mm 0.00 in0.0 mm
02:02 AM 69.6°F20.9°C 57.7°F14.3°C 66% 1.6 mph S2.6 kmh S 6.9 mph11.1 kmh 30.12 in1020.0 mb 0.00 in0.0 mm 0.00 in0.0 mm 0.00 in0.0 mm
02:00 AM 69.6°F20.9°C 57.7°F14.3°C 66% 2.2 mph W3.5 kmh W 5.4 mph8.7 kmh 30.13 in1020.3 mb 0.00 in0.0 mm 0.00 in0.0 mm 0.00 in0.0 mm
01:59 AM 69.8°F21.0°C 57.9°F14.4°C 66% 0.7 mph W1.1 kmh W 4.5 mph7.2 kmh 30.12 in1020.0 mb 0.00 in0.0 mm 0.00 in0.0 mm 0.00 in0.0 mm
01:58 AM 69.8°F21.0°C 57.6°F14.2°C 65% 1.6 mph NW2.6 kmh NW 3.8 mph6.1 kmh 30.12 in1020.0 mb 0.00 in0.0 mm 0.00 in0.0 mm 0.00 in0.0 mm
01:57 AM 69.8°F21.0°C 57.9°F14.4°C 66% 1.6 mph W2.6 kmh W 3.8 mph6.1 kmh 30.13 in1020.3 mb 0.00 in0.0 mm 0.00 in0.0 mm 0.00 in0.0 mm
01:56 AM 69.8°F21.0°C 57.9°F14.4°C 66% 1.6 mph NE2.6 kmh NE 7.6 mph12.2 kmh 30.12 in1020.0 mb 0.00 in0.0 mm 0.00 in0.0 mm 0.00 in0.0 mm
01:55 AM 69.8°F21.0°C 57.6°F14.2°C 65% 2.2 mph W3.5 kmh W 8.3 mph13.4 kmh 30.12 in1020.0 mb 0.00 in0.0 mm 0.00 in0.0 mm 0.00 in0.0 mm
01:53 AM 69.8°F21.0°C 57.6°F14.2°C 65% 3.1 mph SE5.0 kmh SE 9.2 mph14.8 kmh 30.13 in1020.3 mb 0.00 in0.0 mm 0.00 in0.0 mm 0.00 in0.0 mm
01:52 AM 69.8°F21.0°C 57.6°F14.2°C 65% 1.6 mph W2.6 kmh W 9.2 mph14.8 kmh 30.13 in1020.3 mb 0.00 in0.0 mm 0.00 in0.0 mm 0.00 in0.0 mm
01:50 AM 69.8°F21.0°C 57.6°F14.2°C 65% 0.7 mph SE1.1 kmh SE 3.1 mph5.0 kmh 30.13 in1020.3 mb 0.00 in0.0 mm 0.00 in0.0 mm 0.00 in0.0 mm
01:46 AM 69.8°F21.0°C 57.6°F14.2°C 65% Calm Calm 9.2 mph14.8 kmh 30.13 in1020.3 mb 0.00 in0.0 mm 0.00 in0.0 mm 0.00 in0.0 mm
01:44 AM 69.8°F21.0°C 57.6°F14.2°C 65% Calm Calm 2.2 mph3.5 kmh 30.13 in1020.3 mb 0.00 in0.0 mm 0.00 in0.0 mm 0.00 in0.0 mm
01:43 AM 69.8°F21.0°C 57.6°F14.2°C 65% 1.6 mph SW2.6 kmh SW 5.4 mph8.7 kmh 30.14 in1020.7 mb 0.00 in0.0 mm 0.00 in0.0 mm 0.00 in0.0 mm
01:42 AM 69.8°F21.0°C 57.0°F13.9°C 64% 3.1 mph W5.0 kmh W 5.4 mph8.7 kmh 30.14 in1020.7 mb 0.00 in0.0 mm 0.00 in0.0 mm 0.00 in0.0 mm
01:40 AM 70.0°F21.1°C 57.2°F14.0°C 64% 0.7 mph W1.1 kmh W 7.6 mph12.2 kmh 30.14 in1020.7 mb 0.00 in0.0 mm 0.00 in0.0 mm 0.00 in0.0 mm
01:39 AM 70.0°F21.1°C 57.2°F14.0°C 64% 2.2 mph 3.5 kmh 8.3 mph13.4 kmh 30.14 in1020.7 mb 0.00 in0.0 mm 0.00 in0.0 mm 0.00 in0.0 mm
01:38 AM 70.0°F21.1°C 57.2°F14.0°C 64% 2.2 mph 3.5 kmh 7.6 mph12.2 kmh 30.14 in1020.7 mb 0.00 in0.0 mm 0.00 in0.0 mm 0.00 in0.0 mm
01:37 AM 70.0°F21.1°C 57.2°F14.0°C 64% 0.7 mph S1.1 kmh S 3.1 mph5.0 kmh 30.14 in1020.7 mb 0.00 in0.0 mm 0.00 in0.0 mm 0.00 in0.0 mm
01:35 AM 70.0°F21.1°C 57.7°F14.3°C 65% 1.6 mph 2.6 kmh 3.1 mph5.0 kmh 30.14 in1020.7 mb 0.00 in0.0 mm 0.00 in0.0 mm 0.00 in0.0 mm
01:32 AM 70.0°F21.1°C 57.2°F14.0°C 64% 0.7 mph E1.1 kmh E 6.0 mph9.7 kmh 30.14 in1020.7 mb 0.00 in0.0 mm 0.00 in0.0 mm 0.00 in0.0 mm
01:31 AM 70.0°F21.1°C 57.2°F14.0°C 64% 2.2 mph W3.5 kmh W 7.6 mph12.2 kmh 30.14 in1020.7 mb 0.00 in0.0 mm 0.00 in0.0 mm 0.00 in0.0 mm
01:29 AM 70.0°F21.1°C 57.2°F14.0°C 64% 2.2 mph 3.5 kmh 6.9 mph11.1 kmh 30.14 in1020.7 mb 0.00 in0.0 mm 0.00 in0.0 mm 0.00 in0.0 mm
01:28 AM 70.0°F21.1°C 57.2°F14.0°C 64% 1.6 mph W2.6 kmh W 3.1 mph5.0 kmh 30.14 in1020.7 mb 0.00 in0.0 mm 0.00 in0.0 mm 0.00 in0.0 mm
01:26 AM 70.0°F21.1°C 57.2°F14.0°C 64% Calm Calm 2.2 mph3.5 kmh 30.15 in1021.0 mb 0.00 in0.0 mm 0.00 in0.0 mm 0.00 in0.0 mm
01:25 AM 70.0°F21.1°C 57.2°F14.0°C 64% 0.7 mph W1.1 kmh W 3.8 mph6.1 kmh 30.15 in1021.0 mb 0.00 in0.0 mm 0.00 in0.0 mm 0.00 in0.0 mm
01:23 AM 70.0°F21.1°C 57.2°F14.0°C 64% 0.7 mph 1.1 kmh 3.8 mph6.1 kmh 30.14 in1020.7 mb 0.00 in0.0 mm 0.00 in0.0 mm 0.00 in0.0 mm
01:22 AM 70.0°F21.1°C 57.7°F14.3°C 65% 0.7 mph S1.1 kmh S 3.8 mph6.1 kmh 30.15 in1021.0 mb 0.00 in0.0 mm 0.00 in0.0 mm 0.00 in0.0 mm
01:20 AM 70.0°F21.1°C 57.7°F14.3°C 65% 1.6 mph W2.6 kmh W 4.5 mph7.2 kmh 30.15 in1021.0 mb 0.00 in0.0 mm 0.00 in0.0 mm 0.00 in0.0 mm
01:19 AM 70.0°F21.1°C 57.2°F14.0°C 64% 1.6 mph W2.6 kmh W 4.5 mph7.2 kmh 30.15 in1021.0 mb 0.00 in0.0 mm 0.00 in0.0 mm 0.00 in0.0 mm
01:18 AM 70.0°F21.1°C 57.2°F14.0°C 64% 0.7 mph 1.1 kmh 3.1 mph5.0 kmh 30.15 in1021.0 mb 0.00 in0.0 mm 0.00 in0.0 mm 0.00 in0.0 mm
01:17 AM 70.0°F21.1°C 58.1°F14.5°C 66% 1.6 mph W2.6 kmh W 3.8 mph6.1 kmh 30.15 in1021.0 mb 0.00 in0.0 mm 0.00 in0.0 mm 0.00 in0.0 mm
01:16 AM 70.0°F21.1°C 57.7°F14.3°C 65% 2.2 mph S3.5 kmh S 4.5 mph7.2 kmh 30.15 in1021.0 mb 0.00 in0.0 mm 0.00 in0.0 mm 0.00 in0.0 mm
01:15 AM 70.0°F21.1°C 57.7°F14.3°C 65% 2.2 mph W3.5 kmh W 5.4 mph8.7 kmh 30.15 in1021.0 mb 0.00 in0.0 mm 0.00 in0.0 mm 0.00 in0.0 mm
01:12 AM 70.0°F21.1°C 57.2°F14.0°C 64% 1.6 mph S2.6 kmh S 5.4 mph8.7 kmh 30.16 in1021.3 mb 0.00 in0.0 mm 0.00 in0.0 mm 0.00 in0.0 mm
01:11 AM 70.0°F21.1°C 57.2°F14.0°C 64% 1.6 mph S2.6 kmh S 5.4 mph8.7 kmh 30.15 in1021.0 mb 0.00 in0.0 mm 0.00 in0.0 mm 0.00 in0.0 mm
01:10 AM 70.0°F21.1°C 57.2°F14.0°C 64% 2.2 mph S3.5 kmh S 4.5 mph7.2 kmh 30.16 in1021.3 mb 0.00 in0.0 mm 0.00 in0.0 mm 0.00 in0.0 mm
01:09 AM 70.0°F21.1°C 57.2°F14.0°C 64% 1.6 mph W2.6 kmh W 3.8 mph6.1 kmh 30.16 in1021.3 mb 0.00 in0.0 mm 0.00 in0.0 mm 0.00 in0.0 mm
01:06 AM 70.0°F21.1°C 57.7°F14.3°C 65% 0.7 mph SW1.1 kmh SW 3.1 mph5.0 kmh 30.16 in1021.3 mb 0.00 in0.0 mm 0.00 in0.0 mm 0.00 in0.0 mm
01:05 AM 70.0°F21.1°C 57.7°F14.3°C 65% 1.6 mph E2.6 kmh E 4.5 mph7.2 kmh 30.16 in1021.3 mb 0.00 in0.0 mm 0.00 in0.0 mm 0.00 in0.0 mm
01:04 AM 70.0°F21.1°C 57.7°F14.3°C 65% 1.6 mph S2.6 kmh S 3.8 mph6.1 kmh 30.16 in1021.3 mb 0.00 in0.0 mm 0.00 in0.0 mm 0.00 in0.0 mm
01:03 AM 70.0°F21.1°C 57.2°F14.0°C 64% 1.6 mph S2.6 kmh S 6.0 mph9.7 kmh 30.16 in1021.3 mb 0.00 in0.0 mm 0.00 in0.0 mm 0.00 in0.0 mm
01:02 AM 70.0°F21.1°C 57.2°F14.0°C 64% 2.2 mph S3.5 kmh S 6.9 mph11.1 kmh 30.16 in1021.3 mb 0.00 in0.0 mm 0.00 in0.0 mm 0.00 in0.0 mm
01:00 AM 70.0°F21.1°C 57.2°F14.0°C 64% 2.2 mph SW3.5 kmh SW 4.5 mph7.2 kmh 30.16 in1021.3 mb 0.00 in0.0 mm 0.00 in0.0 mm 0.00 in0.0 mm
12:59 AM 70.0°F21.1°C 57.7°F14.3°C 65% 2.2 mph SW3.5 kmh SW 5.4 mph8.7 kmh 30.16 in1021.3 mb 0.00 in0.0 mm 0.00 in0.0 mm 0.00 in0.0 mm
12:57 AM 70.0°F21.1°C 58.1°F14.5°C 66% 3.8 mph SW6.1 kmh SW 5.4 mph8.7 kmh 30.16 in1021.3 mb 0.00 in0.0 mm 0.00 in0.0 mm 0.00 in0.0 mm
12:56 AM 70.0°F21.1°C 58.1°F14.5°C 66% 1.6 mph S2.6 kmh S 14.5 mph23.3 kmh 30.16 in1021.3 mb 0.00 in0.0 mm 0.00 in0.0 mm 0.00 in0.0 mm
12:55 AM 70.0°F21.1°C 57.7°F14.3°C 65% 4.5 mph 7.2 kmh 14.5 mph23.3 kmh 30.16 in1021.3 mb 0.00 in0.0 mm 0.00 in0.0 mm 0.00 in0.0 mm
12:53 AM 70.0°F21.1°C 58.1°F14.5°C 66% 1.6 mph S2.6 kmh S 6.0 mph9.7 kmh 30.16 in1021.3 mb 0.00 in0.0 mm 0.00 in0.0 mm 0.00 in0.0 mm
12:52 AM 70.0°F21.1°C 58.1°F14.5°C 66% 3.1 mph S5.0 kmh S 6.0 mph9.7 kmh 30.16 in1021.3 mb 0.00 in0.0 mm 0.00 in0.0 mm 0.00 in0.0 mm
12:50 AM 70.0°F21.1°C 58.1°F14.5°C 66% 3.1 mph S5.0 kmh S 6.0 mph9.7 kmh 30.16 in1021.3 mb 0.00 in0.0 mm 0.00 in0.0 mm 0.00 in0.0 mm
12:49 AM 70.0°F21.1°C 58.1°F14.5°C 66% 3.1 mph SE5.0 kmh SE 5.4 mph8.7 kmh 30.17 in1021.7 mb 0.00 in0.0 mm 0.00 in0.0 mm 0.00 in0.0 mm
12:48 AM 70.0°F21.1°C 58.1°F14.5°C 66% 3.1 mph SE5.0 kmh SE 6.0 mph9.7 kmh 30.16 in1021.3 mb 0.00 in0.0 mm 0.00 in0.0 mm 0.00 in0.0 mm
12:46 AM 70.2°F21.2°C 57.9°F14.4°C 65% 3.1 mph SE5.0 kmh SE 6.0 mph9.7 kmh 30.17 in1021.7 mb 0.00 in0.0 mm 0.00 in0.0 mm 0.00 in0.0 mm
12:45 AM 70.2°F21.2°C 58.3°F14.6°C 66% 3.1 mph S5.0 kmh S 6.0 mph9.7 kmh 30.16 in1021.3 mb 0.00 in0.0 mm 0.00 in0.0 mm 0.00 in0.0 mm
12:44 AM 70.2°F21.2°C 58.3°F14.6°C 66% 3.8 mph S6.1 kmh S 5.4 mph8.7 kmh 30.17 in1021.7 mb 0.00 in0.0 mm 0.00 in0.0 mm 0.00 in0.0 mm
12:43 AM 70.2°F21.2°C 58.3°F14.6°C 66% 2.2 mph S3.5 kmh S 7.6 mph12.2 kmh 30.17 in1021.7 mb 0.00 in0.0 mm 0.00 in0.0 mm 0.00 in0.0 mm
12:42 AM 70.2°F21.2°C 58.6°F14.8°C 67% 3.1 mph S5.0 kmh S 7.6 mph12.2 kmh 30.17 in1021.7 mb 0.00 in0.0 mm 0.00 in0.0 mm 0.00 in0.0 mm
12:39 AM 70.2°F21.2°C 58.3°F14.6°C 66% 3.1 mph SW5.0 kmh SW 5.4 mph8.7 kmh 30.17 in1021.7 mb 0.00 in0.0 mm 0.00 in0.0 mm 0.00 in0.0 mm
12:38 AM 70.2°F21.2°C 58.6°F14.8°C 67% 1.6 mph W2.6 kmh W 5.4 mph8.7 kmh 30.17 in1021.7 mb 0.00 in0.0 mm 0.00 in0.0 mm 0.00 in0.0 mm
12:37 AM 70.3°F21.3°C 58.8°F14.9°C 67% 1.6 mph S2.6 kmh S 5.4 mph8.7 kmh 30.17 in1021.7 mb 0.00 in0.0 mm 0.00 in0.0 mm 0.00 in0.0 mm
12:36 AM 70.3°F21.3°C 59.4°F15.2°C 68% 3.1 mph S5.0 kmh S 5.4 mph8.7 kmh 30.17 in1021.7 mb 0.00 in0.0 mm 0.00 in0.0 mm 0.00 in0.0 mm
12:35 AM 70.3°F21.3°C 58.8°F14.9°C 67% 1.6 mph SE2.6 kmh SE 8.3 mph13.4 kmh 30.18 in1022.0 mb 0.00 in0.0 mm 0.00 in0.0 mm 0.00 in0.0 mm
12:33 AM 70.3°F21.3°C 58.8°F14.9°C 67% 3.1 mph SE5.0 kmh SE 8.3 mph13.4 kmh 30.17 in1021.7 mb 0.00 in0.0 mm 0.00 in0.0 mm 0.00 in0.0 mm
12:32 AM 70.3°F21.3°C 58.8°F14.9°C 67% 3.8 mph SE6.1 kmh SE 5.4 mph8.7 kmh 30.18 in1022.0 mb 0.00 in0.0 mm 0.00 in0.0 mm 0.00 in0.0 mm
12:31 AM 70.2°F21.2°C 58.6°F14.8°C 67% 2.2 mph S3.5 kmh S 5.4 mph8.7 kmh 30.18 in1022.0 mb 0.00 in0.0 mm 0.00 in0.0 mm 0.00 in0.0 mm
12:30 AM 70.2°F21.2°C 58.3°F14.6°C 66% 1.6 mph W2.6 kmh W 6.9 mph11.1 kmh 30.18 in1022.0 mb 0.00 in0.0 mm 0.00 in0.0 mm 0.00 in0.0 mm
12:29 AM 70.2°F21.2°C 59.2°F15.1°C 68% 0.7 mph E1.1 kmh E 3.8 mph6.1 kmh 30.18 in1022.0 mb 0.00 in0.0 mm 0.00 in0.0 mm 0.00 in0.0 mm
12:26 AM 70.2°F21.2°C 58.6°F14.8°C 67% 3.1 mph S5.0 kmh S 5.4 mph8.7 kmh 30.18 in1022.0 mb 0.00 in0.0 mm 0.00 in0.0 mm 0.00 in0.0 mm
12:25 AM 70.2°F21.2°C 59.2°F15.1°C 68% 0.7 mph E1.1 kmh E 4.5 mph7.2 kmh 30.18 in1022.0 mb 0.00 in0.0 mm 0.00 in0.0 mm 0.00 in0.0 mm
12:24 AM 70.2°F21.2°C 59.2°F15.1°C 68% 2.2 mph S3.5 kmh S 4.5 mph7.2 kmh 30.18 in1022.0 mb 0.00 in0.0 mm 0.00 in0.0 mm 0.00 in0.0 mm
12:23 AM 70.0°F21.1°C 58.5°F14.7°C 67% 2.2 mph S3.5 kmh S 4.5 mph7.2 kmh 30.18 in1022.0 mb 0.00 in0.0 mm 0.00 in0.0 mm 0.00 in0.0 mm
12:22 AM 70.0°F21.1°C 59.0°F15.0°C 68% 1.6 mph S2.6 kmh S 3.8 mph6.1 kmh 30.18 in1022.0 mb 0.00 in0.0 mm 0.00 in0.0 mm 0.00 in0.0 mm
12:21 AM 70.0°F21.1°C 58.5°F14.7°C 67% 2.2 mph SW3.5 kmh SW 9.2 mph14.8 kmh 30.18 in1022.0 mb 0.00 in0.0 mm 0.00 in0.0 mm 0.00 in0.0 mm
12:19 AM 70.0°F21.1°C 59.0°F15.0°C 68% 1.6 mph W2.6 kmh W 6.0 mph9.7 kmh 30.18 in1022.0 mb 0.00 in0.0 mm 0.00 in0.0 mm 0.00 in0.0 mm
12:18 AM 70.0°F21.1°C 59.0°F15.0°C 68% 2.2 mph SW3.5 kmh SW 8.3 mph13.4 kmh 30.18 in1022.0 mb 0.00 in0.0 mm 0.00 in0.0 mm 0.00 in0.0 mm
12:17 AM 70.0°F21.1°C 59.4°F15.2°C 69% 3.1 mph E5.0 kmh E 8.3 mph13.4 kmh 30.18 in1022.0 mb 0.00 in0.0 mm 0.00 in0.0 mm 0.00 in0.0 mm
12:16 AM 70.0°F21.1°C 59.4°F15.2°C 69% 2.2 mph SW3.5 kmh SW 5.4 mph8.7 kmh 30.19 in1022.4 mb 0.00 in0.0 mm 0.00 in0.0 mm 0.00 in0.0 mm
12:15 AM 70.0°F21.1°C 59.0°F15.0°C 68% 1.6 mph SE2.6 kmh SE 5.4 mph8.7 kmh 30.18 in1022.0 mb 0.00 in0.0 mm 0.00 in0.0 mm 0.00 in0.0 mm
12:13 AM 70.0°F21.1°C 59.4°F15.2°C 69% 3.1 mph SE5.0 kmh SE 5.4 mph8.7 kmh 30.19 in1022.4 mb 0.00 in0.0 mm 0.00 in0.0 mm 0.00 in0.0 mm
12:12 AM 70.0°F21.1°C 59.7°F15.4°C 70% 2.2 mph S3.5 kmh S 6.0 mph9.7 kmh 30.19 in1022.4 mb 0.00 in0.0 mm 0.00 in0.0 mm 0.00 in0.0 mm
12:10 AM 70.0°F21.1°C 59.4°F15.2°C 69% 3.8 mph S6.1 kmh S 7.6 mph12.2 kmh 30.18 in1022.0 mb 0.00 in0.0 mm 0.00 in0.0 mm 0.00 in0.0 mm
12:09 AM 70.2°F21.2°C 59.5°F15.3°C 69% 3.1 mph S5.0 kmh S 7.6 mph12.2 kmh 30.19 in1022.4 mb 0.00 in0.0 mm 0.00 in0.0 mm 0.00 in0.0 mm
12:08 AM 70.2°F21.2°C 59.9°F15.5°C 70% 1.6 mph SW2.6 kmh SW 3.8 mph6.1 kmh 30.19 in1022.4 mb 0.00 in0.0 mm 0.00 in0.0 mm 0.00 in0.0 mm
12:05 AM 70.2°F21.2°C 59.9°F15.5°C 70% 0.7 mph W1.1 kmh W 3.1 mph5.0 kmh 30.19 in1022.4 mb 0.00 in0.0 mm 0.00 in0.0 mm 0.00 in0.0 mm
12:04 AM 70.2°F21.2°C 60.3°F15.7°C 71% 1.6 mph S2.6 kmh S 3.8 mph6.1 kmh 30.19 in1022.4 mb 0.00 in0.0 mm 0.00 in0.0 mm 0.00 in0.0 mm
12:03 AM 70.2°F21.2°C 59.9°F15.5°C 70% 1.6 mph S2.6 kmh S 3.8 mph6.1 kmh 30.19 in1022.4 mb 0.00 in0.0 mm 0.00 in0.0 mm 0.00 in0.0 mm
12:02 AM 70.2°F21.2°C 59.9°F15.5°C 70% 1.6 mph S2.6 kmh S 3.8 mph6.1 kmh 30.19 in1022.4 mb 0.00 in0.0 mm 0.00 in0.0 mm 0.00 in0.0 mm
12:01 AM 70.3°F21.3°C 60.1°F15.6°C 70% 1.6 mph S2.6 kmh S 4.5 mph7.2 kmh 30.19 in1022.4 mb 0.00 in0.0 mm 0.00 in0.0 mm 0.00 in0.0 mm